Observation data for Palo Duro Canyon State Park Rim on 07/17/2019      Previous  Date       Current Mesonet Observations  Soil Data  Daily Summary Page  Observations in Plain Language
KPD1 170500Z 15006KT 28/14 A3005 RMK A01 T02800143  RH  043%=      5-min Rain = 0
KPD1 170501Z 16006KT 28/14 A3005 RMK A01 T02800143  RH  043%=      5-min Rain = 0
KPD1 170502Z 16005KT 28/14 A3005 RMK A01 T02800144  RH  043%=      5-min Rain = 0
KPD1 170503Z 16006KT 28/14 A3005 RMK A01 T02790143  RH  043%=      5-min Rain = 0
KPD1 170504Z 16005KT 28/14 A3005 RMK A01 T02790142  RH  043%=      5-min Rain = 0
KPD1 170505Z 15005KT 28/14 A3005 RMK A01 T02790143  RH  043%=      5-min Rain = 0
KPD1 170506Z 16007KT 28/14 A3005 RMK A01 T02790143  RH  043%=      5-min Rain = 0
KPD1 170507Z 16006KT 28/14 A3005 RMK A01 T02790143  RH  043%=      5-min Rain = 0
KPD1 170508Z 16005KT 28/14 A3005 RMK A01 T02800144  RH  043%=      5-min Rain = 0
KPD1 170509Z 16007KT 28/14 A3005 RMK A01 T02790143  RH  043%=      5-min Rain = 0
KPD1 170510Z 16007KT 28/14 A3005 RMK A01 T02790143  RH  043%=      5-min Rain = 0
KPD1 170511Z 16006KT 28/14 A3005 RMK A01 T02790143  RH  043%=      5-min Rain = 0
KPD1 170512Z 16007KT 28/14 A3005 RMK A01 T02800144  RH  043%=      5-min Rain = 0
KPD1 170513Z 16008KT 28/14 A3005 RMK A01 T02790143  RH  043%=      5-min Rain = 0
KPD1 170514Z 16006KT 28/14 A3005 RMK A01 T02790143  RH  043%=      5-min Rain = 0
KPD1 170515Z 15006KT 28/14 A3005 RMK A01 T02790143  RH  043%=      5-min Rain = 0
KPD1 170516Z 16006KT 28/14 A3005 RMK A01 T02800143  RH  043%=      5-min Rain = 0
KPD1 170517Z 16008KT 28/14 A3005 RMK A01 T02800144  RH  043%=      5-min Rain = 0
KPD1 170518Z 16007KT 28/14 A3005 RMK A01 T02800143  RH  043%=      5-min Rain = 0
KPD1 170519Z 16005KT 28/14 A3005 RMK A01 T02790142  RH  043%=      5-min Rain = 0
KPD1 170520Z 16007KT 28/14 A3005 RMK A01 T02800143  RH  043%=      5-min Rain = 0
KPD1 170521Z 16007KT 28/14 A3005 RMK A01 T02790143  RH  043%=      5-min Rain = 0
KPD1 170522Z 15006KT 28/14 A3005 RMK A01 T02800143  RH  043%=      5-min Rain = 0
KPD1 170523Z 16006KT 28/14 A3005 RMK A01 T02790142  RH  043%=      5-min Rain = 0
KPD1 170524Z 16007KT 28/14 A3005 RMK A01 T02800143  RH  043%=      5-min Rain = 0
KPD1 170525Z 16007KT 28/14 A3005 RMK A01 T02790143  RH  043%=      5-min Rain = 0
KPD1 170526Z 15006KT 28/14 A3005 RMK A01 T02790142  RH  043%=      5-min Rain = 0
KPD1 170527Z 16006KT 28/14 A3005 RMK A01 T02800143  RH  043%=      5-min Rain = 0
KPD1 170528Z 15007KT 28/14 A3005 RMK A01 T02800143  RH  043%=      5-min Rain = 0
KPD1 170529Z 15005KT 28/14 A3005 RMK A01 T02790142  RH  043%=      5-min Rain = 0
KPD1 170530Z 14007KT 28/14 A3005 RMK A01 T02790142  RH  043%=      5-min Rain = 0
KPD1 170531Z 15006KT 28/14 A3005 RMK A01 T02790142  RH  043%=      5-min Rain = 0
KPD1 170532Z 14006KT 28/14 A3005 RMK A01 T02790142  RH  043%=      5-min Rain = 0
KPD1 170533Z 14008KT 28/14 A3005 RMK A01 T02790142  RH  043%=      5-min Rain = 0
KPD1 170534Z 15007KT 28/14 A3005 RMK A01 T02800142  RH  043%=      5-min Rain = 0
KPD1 170535Z 15008KT 28/14 A3005 RMK A01 T02810142  RH  043%=      5-min Rain = 0
KPD1 170536Z 16005KT 28/14 A3005 RMK A01 T02800142  RH  043%=      5-min Rain = 0
KPD1 170537Z 15005KT 28/14 A3005 RMK A01 T02810143  RH  043%=      5-min Rain = 0
KPD1 170538Z 14005KT 28/14 A3005 RMK A01 T02800142  RH  043%=      5-min Rain = 0
KPD1 170539Z 15006KT 28/14 A3005 RMK A01 T02800143  RH  043%=      5-min Rain = 0
KPD1 170540Z 15007KT 28/14 A3005 RMK A01 T02800142  RH  043%=      5-min Rain = 0
KPD1 170541Z 16006KT 28/14 A3005 RMK A01 T02800143  RH  043%=      5-min Rain = 0
KPD1 170542Z 16006KT 28/14 A3004 RMK A01 T02800142  RH  043%=      5-min Rain = 0
KPD1 170543Z 15006KT 28/14 A3004 RMK A01 T02800142  RH  043%=      5-min Rain = 0
KPD1 170544Z 15007KT 28/14 A3004 RMK A01 T02800143  RH  043%=      5-min Rain = 0
KPD1 170545Z 15005KT 28/14 A3004 RMK A01 T02790142  RH  043%=      5-min Rain = 0
KPD1 170546Z 15007KT 28/14 A3004 RMK A01 T02790142  RH  043%=      5-min Rain = 0
KPD1 170547Z 16006KT 28/14 A3004 RMK A01 T02800143  RH  043%=      5-min Rain = 0
KPD1 170548Z 15006KT 28/14 A3004 RMK A01 T02790142  RH  043%=      5-min Rain = 0
KPD1 170549Z 16006KT 28/14 A3004 RMK A01 T02790142  RH  043%=      5-min Rain = 0
KPD1 170550Z 16007KT 28/14 A3004 RMK A01 T02790143  RH  043%=      5-min Rain = 0
KPD1 170551Z 16008KT 28/14 A3004 RMK A01 T02790142  RH  043%=      5-min Rain = 0
KPD1 170552Z 15008KT 28/14 A3004 RMK A01 T02790142  RH  043%=      5-min Rain = 0
KPD1 170553Z 16006KT 28/14 A3004 RMK A01 T02790142  RH  043%=      5-min Rain = 0
KPD1 170554Z 16005KT 28/14 A3004 RMK A01 T02790142  RH  043%=      5-min Rain = 0
KPD1 170555Z 16007KT 28/14 A3004 RMK A01 T02790143  RH  043%=      5-min Rain = 0
KPD1 170556Z 16006KT 28/14 A3004 RMK A01 T02780143  RH  043%=      5-min Rain = 0
KPD1 170557Z 16005KT 28/14 A3004 RMK A01 T02780143  RH  043%=      5-min Rain = 0
KPD1 170558Z 17006KT 28/14 A3004 RMK A01 T02780143  RH  044%=      5-min Rain = 0
KPD1 170559Z 16007KT 28/14 A3004 RMK A01 T02770142  RH  044%=      5-min Rain = 0
KPD1 170600Z 16006KT 28/14 A3004 RMK A01 T02770143  RH  044%=      5-min Rain = 0
KPD1 170601Z 16008KT 28/14 A3004 RMK A01 T02770142  RH  044%=      5-min Rain = 0
KPD1 170602Z 16007G12KT 28/14 A3004 RMK A01 T02760142  RH  044%=      5-min Rain = 0
KPD1 170603Z 16010KT 28/14 A3004 RMK A01 T02770143  RH  044%=      5-min Rain = 0
KPD1 170604Z 16009KT 28/14 A3004 RMK A01 T02770142  RH  044%=      5-min Rain = 0
KPD1 170605Z 17009KT 28/14 A3004 RMK A01 T02780143  RH  043%=      5-min Rain = 0
KPD1 170606Z 17008KT 28/14 A3004 RMK A01 T02790142  RH  043%=      5-min Rain = 0
KPD1 170607Z 16008KT 28/14 A3004 RMK A01 T02790143  RH  043%=      5-min Rain = 0
KPD1 170608Z 16009KT 28/14 A3004 RMK A01 T02800143  RH  043%=      5-min Rain = 0
KPD1 170609Z 16006KT 28/14 A3004 RMK A01 T02800143  RH  043%=      5-min Rain = 0
KPD1 170610Z 16007KT 28/14 A3004 RMK A01 T02810143  RH  043%=      5-min Rain = 0
KPD1 170611Z 15008KT 28/14 A3004 RMK A01 T02800143  RH  043%=      5-min Rain = 0
KPD1 170612Z 16007KT 28/14 A3004 RMK A01 T02800143  RH  043%=      5-min Rain = 0
KPD1 170613Z 16006KT 28/14 A3004 RMK A01 T02800143  RH  043%=      5-min Rain = 0
KPD1 170614Z 16008KT 28/14 A3004 RMK A01 T02800143  RH  043%=      5-min Rain = 0
KPD1 170615Z 15006KT 28/14 A3004 RMK A01 T02810144  RH  043%=      5-min Rain = 0
KPD1 170616Z 16008KT 28/14 A3004 RMK A01 T02800143  RH  043%=      5-min Rain = 0
KPD1 170617Z 15006KT 28/14 A3004 RMK A01 T02810143  RH  043%=      5-min Rain = 0
KPD1 170618Z 14007KT 28/14 A3004 RMK A01 T02810143  RH  043%=      5-min Rain = 0
KPD1 170619Z 14006KT 28/14 A3004 RMK A01 T02810143  RH  043%=      5-min Rain = 0
KPD1 170620Z 17005KT 28/14 A3004 RMK A01 T02810144  RH  043%=      5-min Rain = 0
KPD1 170621Z 16006KT 28/14 A3005 RMK A01 T02800143  RH  043%=      5-min Rain = 0
KPD1 170622Z 15006KT 28/14 A3005 RMK A01 T02810144  RH  043%=      5-min Rain = 0
KPD1 170623Z 17006KT 28/14 A3005 RMK A01 T02800143  RH  043%=      5-min Rain = 0
KPD1 170624Z 15005KT 28/14 A3005 RMK A01 T02800144  RH  043%=      5-min Rain = 0
KPD1 170625Z 14005KT 28/14 A3005 RMK A01 T02790143  RH  043%=      5-min Rain = 0
KPD1 170626Z 15004KT 28/14 A3005 RMK A01 T02790143  RH  043%=      5-min Rain = 0
KPD1 170627Z 16005KT 28/14 A3005 RMK A01 T02790143  RH  044%=      5-min Rain = 0
KPD1 170628Z 15004KT 28/14 A3005 RMK A01 T02780143  RH  044%=      5-min Rain = 0
KPD1 170629Z 14004KT 28/14 A3005 RMK A01 T02780143  RH  044%=      5-min Rain = 0
KPD1 170630Z 13005KT 28/14 A3005 RMK A01 T02770143  RH  044%=      5-min Rain = 0
KPD1 170631Z 13005KT 28/14 A3005 RMK A01 T02760143  RH  044%=      5-min Rain = 0
KPD1 170632Z 14005KT 28/14 A3005 RMK A01 T02750144  RH  044%=      5-min Rain = 0
KPD1 170633Z 14005KT 28/14 A3005 RMK A01 T02750144  RH  045%=      5-min Rain = 0
KPD1 170634Z 14005KT 27/14 A3005 RMK A01 T02740143  RH  045%=      5-min Rain = 0
KPD1 170635Z 15006KT 27/14 A3005 RMK A01 T02740144  RH  045%=      5-min Rain = 0
KPD1 170636Z 14005KT 28/14 A3005 RMK A01 T02750144  RH  045%=      5-min Rain = 0
KPD1 170637Z 14003KT 28/14 A3005 RMK A01 T02750144  RH  045%=      5-min Rain = 0
KPD1 170638Z 14004KT 28/14 A3005 RMK A01 T02750144  RH  045%=      5-min Rain = 0
KPD1 170639Z 16004KT 28/14 A3005 RMK A01 T02750144  RH  044%=      5-min Rain = 0
KPD1 170640Z 16005KT 28/14 A3005 RMK A01 T02750144  RH  045%=      5-min Rain = 0
KPD1 170641Z 15005KT 28/14 A3005 RMK A01 T02750144  RH  045%=      5-min Rain = 0
KPD1 170642Z 15005KT 28/14 A3005 RMK A01 T02750144  RH  045%=      5-min Rain = 0
KPD1 170643Z 15004KT 28/14 A3005 RMK A01 T02750144  RH  045%=      5-min Rain = 0
KPD1 170644Z 15007KT 28/14 A3005 RMK A01 T02750144  RH  045%=      5-min Rain = 0
KPD1 170645Z 17007KT 28/14 A3005 RMK A01 T02750144  RH  045%=      5-min Rain = 0
KPD1 170646Z 15005KT 28/15 A3005 RMK A01 T02760145  RH  045%=      5-min Rain = 0
KPD1 170647Z 15005KT 28/15 A3005 RMK A01 T02770145  RH  045%=      5-min Rain = 0
KPD1 170648Z 16007KT 28/15 A3005 RMK A01 T02770146  RH  045%=      5-min Rain = 0
KPD1 170649Z 16007KT 28/15 A3005 RMK A01 T02770145  RH  044%=      5-min Rain = 0
KPD1 170650Z 16007KT 28/15 A3005 RMK A01 T02770146  RH  044%=      5-min Rain = 0
KPD1 170651Z 16007KT 28/15 A3005 RMK A01 T02770146  RH  045%=      5-min Rain = 0
KPD1 170652Z 16007KT 28/15 A3005 RMK A01 T02770146  RH  045%=      5-min Rain = 0
KPD1 170653Z 17007KT 28/15 A3005 RMK A01 T02770146  RH  045%=      5-min Rain = 0
KPD1 170654Z 17007KT 28/15 A3005 RMK A01 T02780146  RH  045%=      5-min Rain = 0
KPD1 170655Z 17006KT 28/15 A3005 RMK A01 T02780146  RH  044%=      5-min Rain = 0
KPD1 170656Z 17006KT 28/15 A3005 RMK A01 T02770146  RH  045%=      5-min Rain = 0
KPD1 170657Z 16007KT 28/15 A3005 RMK A01 T02770146  RH  045%=      5-min Rain = 0
KPD1 170658Z 17006KT 28/15 A3005 RMK A01 T02770146  RH  045%=      5-min Rain = 0
KPD1 170659Z 17007KT 28/15 A3005 RMK A01 T02770147  RH  045%=      5-min Rain = 0
KPD1 170700Z 17009KT 28/15 A3005 RMK A01 T02770147  RH  045%=      5-min Rain = 0
KPD1 170701Z 18009KT 28/15 A3005 RMK A01 T02770147  RH  045%=      5-min Rain = 0
KPD1 170702Z 17008KT 28/15 A3005 RMK A01 T02770147  RH  045%=      5-min Rain = 0
KPD1 170703Z 17008KT 28/15 A3005 RMK A01 T02770148  RH  045%=      5-min Rain = 0
KPD1 170704Z 18009KT 28/15 A3005 RMK A01 T02770148  RH  045%=      5-min Rain = 0
KPD1 170705Z 17008KT 28/15 A3005 RMK A01 T02770148  RH  045%=      5-min Rain = 0
KPD1 170706Z 17010KT 28/15 A3005 RMK A01 T02770148  RH  045%=      5-min Rain = 0
KPD1 170707Z 16009KT 28/15 A3005 RMK A01 T02770149  RH  045%=      5-min Rain = 0
KPD1 170708Z 19007KT 28/15 A3005 RMK A01 T02760148  RH  045%=      5-min Rain = 0
KPD1 170709Z 18009KT 28/15 A3005 RMK A01 T02770149  RH  046%=      5-min Rain = 0
KPD1 170710Z 17011KT 28/15 A3005 RMK A01 T02760148  RH  046%=      5-min Rain = 0
KPD1 170711Z 17009KT 28/15 A3005 RMK A01 T02760148  RH  046%=      5-min Rain = 0
KPD1 170712Z 17008KT 28/15 A3005 RMK A01 T02750148  RH  046%=      5-min Rain = 0
KPD1 170713Z 16008KT 28/15 A3005 RMK A01 T02750148  RH  046%=      5-min Rain = 0
KPD1 170714Z 18006KT 27/15 A3005 RMK A01 T02740148  RH  046%=      5-min Rain = 0
KPD1 170715Z 17006KT 27/15 A3005 RMK A01 T02740148  RH  046%=      5-min Rain = 0
KPD1 170716Z 19008KT 27/15 A3005 RMK A01 T02730148  RH  046%=      5-min Rain = 0
KPD1 170717Z 19007KT 27/15 A3005 RMK A01 T02720148  RH  047%=      5-min Rain = 0
KPD1 170718Z 18009KT 27/15 A3005 RMK A01 T02710148  RH  047%=      5-min Rain = 0
KPD1 170719Z 19006KT 27/15 A3005 RMK A01 T02710148  RH  047%=      5-min Rain = 0
KPD1 170720Z 18006KT 27/15 A3005 RMK A01 T02710148  RH  047%=      5-min Rain = 0
KPD1 170721Z 18008KT 27/15 A3005 RMK A01 T02700148  RH  047%=      5-min Rain = 0
KPD1 170722Z 18007KT 27/15 A3005 RMK A01 T02690148  RH  047%=      5-min Rain = 0
KPD1 170723Z 18009KT 27/15 A3005 RMK A01 T02680147  RH  048%=      5-min Rain = 0
KPD1 170724Z 18007KT 27/15 A3005 RMK A01 T02670147  RH  048%=      5-min Rain = 0
KPD1 170725Z 17007KT 27/15 A3005 RMK A01 T02670148  RH  048%=      5-min Rain = 0
KPD1 170726Z 18006KT 27/15 A3005 RMK A01 T02660148  RH  048%=      5-min Rain = 0
KPD1 170727Z 18005KT 27/15 A3005 RMK A01 T02650147  RH  048%=      5-min Rain = 0
KPD1 170728Z 18007KT 27/15 A3005 RMK A01 T02650148  RH  048%=      5-min Rain = 0
KPD1 170729Z 18007KT 26/15 A3005 RMK A01 T02640147  RH  049%=      5-min Rain = 0
KPD1 170730Z 18008KT 27/15 A3005 RMK A01 T02650148  RH  049%=      5-min Rain = 0
KPD1 170731Z 17007KT 26/15 A3005 RMK A01 T02640148  RH  049%=      5-min Rain = 0
KPD1 170732Z 18005KT 26/15 A3005 RMK A01 T02630147  RH  049%=      5-min Rain = 0
KPD1 170733Z 18005KT 26/15 A3005 RMK A01 T02630147  RH  049%=      5-min Rain = 0
KPD1 170734Z 18006KT 26/15 A3005 RMK A01 T02620147  RH  049%=      5-min Rain = 0
KPD1 170735Z 18006KT 26/15 A3005 RMK A01 T02610147  RH  049%=      5-min Rain = 0
KPD1 170736Z 20006KT 26/15 A3005 RMK A01 T02610148  RH  050%=      5-min Rain = 0
KPD1 170737Z 18006KT 26/15 A3005 RMK A01 T02600147  RH  050%=      5-min Rain = 0
KPD1 170738Z 20006KT 26/15 A3005 RMK A01 T02590147  RH  050%=      5-min Rain = 0
KPD1 170739Z 19007KT 26/15 A3005 RMK A01 T02590147  RH  050%=      5-min Rain = 0
KPD1 170740Z 19007KT 26/15 A3005 RMK A01 T02590148  RH  050%=      5-min Rain = 0
KPD1 170741Z 19007KT 26/15 A3005 RMK A01 T02590148  RH  050%=      5-min Rain = 0
KPD1 170742Z 18008KT 26/15 A3005 RMK A01 T02590148  RH  050%=      5-min Rain = 0
KPD1 170743Z 18007KT 26/15 A3005 RMK A01 T02590148  RH  050%=      5-min Rain = 0
KPD1 170744Z 18008KT 26/15 A3005 RMK A01 T02590149  RH  051%=      5-min Rain = 0
KPD1 170745Z 18008KT 26/15 A3005 RMK A01 T02590149  RH  051%=      5-min Rain = 0
KPD1 170746Z 18007G13KT 26/15 A3005 RMK A01 T02580148  RH  051%=      5-min Rain = 0
KPD1 170747Z 18007KT 26/15 A3005 RMK A01 T02590149  RH  051%=      5-min Rain = 0
KPD1 170748Z 18007KT 26/15 A3005 RMK A01 T02580149  RH  051%=      5-min Rain = 0
KPD1 170749Z 17006KT 26/15 A3005 RMK A01 T02580149  RH  051%=      5-min Rain = 0
KPD1 170750Z 17006KT 26/15 A3005 RMK A01 T02580149  RH  051%=      5-min Rain = 0
KPD1 170751Z 18008KT 26/15 A3005 RMK A01 T02580149  RH  051%=      5-min Rain = 0
KPD1 170752Z 17009KT 26/15 A3005 RMK A01 T02580149  RH  051%=      5-min Rain = 0
KPD1 170753Z 17007KT 26/15 A3005 RMK A01 T02580149  RH  051%=      5-min Rain = 0
KPD1 170754Z 18008KT 26/15 A3005 RMK A01 T02580149  RH  051%=      5-min Rain = 0
KPD1 170755Z 17006KT 26/15 A3005 RMK A01 T02580149  RH  051%=      5-min Rain = 0
KPD1 170756Z 17006KT 26/15 A3005 RMK A01 T02570149  RH  051%=      5-min Rain = 0
KPD1 170757Z 17008KT 26/15 A3005 RMK A01 T02570149  RH  051%=      5-min Rain = 0
KPD1 170758Z 16008KT 26/15 A3004 RMK A01 T02560149  RH  051%=      5-min Rain = 0
KPD1 170759Z 17007KT 26/15 A3004 RMK A01 T02560149  RH  052%=      5-min Rain = 0
KPD1 170800Z 18006KT 26/15 A3004 RMK A01 T02560149  RH  052%=      5-min Rain = 0
KPD1 170801Z 17009KT 26/15 A3004 RMK A01 T02550149  RH  052%=      5-min Rain = 0
KPD1 170802Z 18009KT 26/15 A3004 RMK A01 T02550149  RH  052%=      5-min Rain = 0
KPD1 170803Z 17008KT 26/15 A3004 RMK A01 T02550149  RH  052%=      5-min Rain = 0
KPD1 170804Z 18008KT 26/15 A3004 RMK A01 T02550149  RH  052%=      5-min Rain = 0
KPD1 170805Z 18006KT 26/15 A3004 RMK A01 T02550149  RH  052%=      5-min Rain = 0
KPD1 170806Z 18008KT 26/15 A3004 RMK A01 T02550149  RH  052%=      5-min Rain = 0
KPD1 170807Z 16007KT 25/15 A3004 RMK A01 T02540149  RH  052%=      5-min Rain = 0
KPD1 170808Z 17007KT 25/15 A3004 RMK A01 T02540149  RH  052%=      5-min Rain = 0
KPD1 170809Z 17007KT 25/15 A3004 RMK A01 T02540149  RH  052%=      5-min Rain = 0
KPD1 170810Z 16008KT 25/15 A3004 RMK A01 T02540148  RH  052%=      5-min Rain = 0
KPD1 170811Z 17007KT 25/15 A3004 RMK A01 T02530149  RH  052%=      5-min Rain = 0
KPD1 170812Z 17007KT 25/15 A3004 RMK A01 T02530149  RH  052%=      5-min Rain = 0
KPD1 170813Z 17007KT 25/15 A3004 RMK A01 T02530149  RH  052%=      5-min Rain = 0
KPD1 170814Z 17007KT 25/15 A3004 RMK A01 T02520149  RH  053%=      5-min Rain = 0
KPD1 170815Z 18007KT 25/15 A3004 RMK A01 T02520149  RH  053%=      5-min Rain = 0
KPD1 170816Z 17007KT 25/15 A3004 RMK A01 T02520149  RH  053%=      5-min Rain = 0
KPD1 170817Z 18009KT 25/15 A3004 RMK A01 T02520149  RH  053%=      5-min Rain = 0
KPD1 170818Z 18008KT 25/15 A3004 RMK A01 T02530150  RH  053%=      5-min Rain = 0
KPD1 170819Z 18007KT 25/15 A3004 RMK A01 T02530149  RH  053%=      5-min Rain = 0
KPD1 170820Z 17005KT 25/15 A3004 RMK A01 T02530149  RH  053%=      5-min Rain = 0
KPD1 170821Z 17006KT 25/15 A3004 RMK A01 T02530149  RH  053%=      5-min Rain = 0
KPD1 170822Z 16005KT 25/15 A3004 RMK A01 T02520150  RH  053%=      5-min Rain = 0
KPD1 170823Z 16006KT 25/15 A3004 RMK A01 T02510149  RH  053%=      5-min Rain = 0
KPD1 170824Z 16007KT 25/15 A3004 RMK A01 T02510150  RH  053%=      5-min Rain = 0
KPD1 170825Z 18007KT 25/15 A3004 RMK A01 T02510151  RH  053%=      5-min Rain = 0
KPD1 170826Z 18007KT 25/15 A3004 RMK A01 T02510150  RH  053%=      5-min Rain = 0
KPD1 170827Z 17007KT 25/15 A3004 RMK A01 T02510150  RH  054%=      5-min Rain = 0
KPD1 170828Z 17007KT 25/15 A3004 RMK A01 T02510150  RH  054%=      5-min Rain = 0
KPD1 170829Z 17005KT 25/15 A3004 RMK A01 T02510151  RH  054%=      5-min Rain = 0
KPD1 170830Z 18008KT 25/15 A3004 RMK A01 T02510150  RH  053%=      5-min Rain = 0
KPD1 170831Z 17009KT 25/15 A3004 RMK A01 T02510151  RH  054%=      5-min Rain = 0
KPD1 170832Z 18007KT 25/15 A3004 RMK A01 T02510151  RH  054%=      5-min Rain = 0
KPD1 170833Z 18005KT 25/15 A3004 RMK A01 T02520151  RH  054%=      5-min Rain = 0
KPD1 170834Z 17005KT 25/15 A3004 RMK A01 T02510151  RH  054%=      5-min Rain = 0
KPD1 170835Z 18009KT 25/15 A3004 RMK A01 T02510151  RH  054%=      5-min Rain = 0
KPD1 170836Z 18009KT 25/15 A3004 RMK A01 T02510152  RH  054%=      5-min Rain = 0
KPD1 170837Z 18010KT 25/15 A3004 RMK A01 T02510152  RH  054%=      5-min Rain = 0
KPD1 170838Z 17008G13KT 25/15 A3004 RMK A01 T02510152  RH  054%=      5-min Rain = 0
KPD1 170839Z 17009KT 25/15 A3004 RMK A01 T02510152  RH  054%=      5-min Rain = 0
KPD1 170840Z 18008KT 25/15 A3004 RMK A01 T02520153  RH  054%=      5-min Rain = 0
KPD1 170841Z 18007KT 25/15 A3004 RMK A01 T02520152  RH  054%=      5-min Rain = 0
KPD1 170842Z 18009KT 25/15 A3004 RMK A01 T02510152  RH  054%=      5-min Rain = 0
KPD1 170843Z 19008KT 25/15 A3004 RMK A01 T02510152  RH  054%=      5-min Rain = 0
KPD1 170844Z 19005KT 25/15 A3004 RMK A01 T02510152  RH  054%=      5-min Rain = 0
KPD1 170845Z 19007KT 25/15 A3004 RMK A01 T02500151  RH  054%=      5-min Rain = 0
KPD1 170846Z 18008KT 25/15 A3004 RMK A01 T02500151  RH  054%=      5-min Rain = 0
KPD1 170847Z 19006KT 25/15 A3004 RMK A01 T02500152  RH  055%=      5-min Rain = 0
KPD1 170848Z 18006KT 25/15 A3004 RMK A01 T02490152  RH  055%=      5-min Rain = 0
KPD1 170849Z 19007KT 25/15 A3004 RMK A01 T02490151  RH  055%=      5-min Rain = 0
KPD1 170850Z 17006KT 25/15 A3004 RMK A01 T02480152  RH  055%=      5-min Rain = 0
KPD1 170851Z 17008KT 25/15 A3004 RMK A01 T02470152  RH  055%=      5-min Rain = 0
KPD1 170852Z 17007KT 25/15 A3004 RMK A01 T02480153  RH  055%=      5-min Rain = 0
KPD1 170853Z 18007G12KT 25/15 A3004 RMK A01 T02480152  RH  055%=      5-min Rain = 0
KPD1 170854Z 19007KT 25/15 A3004 RMK A01 T02480153  RH  055%=      5-min Rain = 0
KPD1 170855Z 19007KT 25/15 A3003 RMK A01 T02480153  RH  056%=      5-min Rain = 0
KPD1 170856Z 18006KT 25/15 A3003 RMK A01 T02480153  RH  056%=      5-min Rain = 0
KPD1 170857Z 19009KT 25/15 A3003 RMK A01 T02470153  RH  056%=      5-min Rain = 0
KPD1 170858Z 18008KT 25/15 A3003 RMK A01 T02470154  RH  056%=      5-min Rain = 0
KPD1 170859Z 18008KT 25/15 A3003 RMK A01 T02470154  RH  056%=      5-min Rain = 0
KPD1 170900Z 19009KT 25/16 A3003 RMK A01 T02470155  RH  056%=      5-min Rain = 0
KPD1 170901Z 19009KT 25/16 A3003 RMK A01 T02470155  RH  056%=      5-min Rain = 0
KPD1 170902Z 19010KT 25/16 A3003 RMK A01 T02470155  RH  056%=      5-min Rain = 0
KPD1 170903Z 18010KT 25/16 A3003 RMK A01 T02480155  RH  056%=      5-min Rain = 0
KPD1 170904Z 19011KT 25/16 A3003 RMK A01 T02490156  RH  056%=      5-min Rain = 0
KPD1 170905Z 19009G14KT 25/16 A3003 RMK A01 T02490157  RH  056%=      5-min Rain = 0
KPD1 170906Z 19009KT 25/16 A3003 RMK A01 T02500156  RH  056%=      5-min Rain = 0
KPD1 170907Z 19011KT 25/16 A3003 RMK A01 T02500157  RH  056%=      5-min Rain = 0
KPD1 170908Z 20011KT 25/16 A3003 RMK A01 T02510157  RH  056%=      5-min Rain = 0
KPD1 170909Z 19009G15KT 25/16 A3003 RMK A01 T02510157  RH  056%=      5-min Rain = 0
KPD1 170910Z 19014KT 25/16 A3003 RMK A01 T02510157  RH  056%=      5-min Rain = 0
KPD1 170911Z 19010KT 25/16 A3003 RMK A01 T02510157  RH  056%=      5-min Rain = 0
KPD1 170912Z 19011KT 25/16 A3002 RMK A01 T02520158  RH  056%=      5-min Rain = 0
KPD1 170913Z 19013KT 25/16 A3002 RMK A01 T02520158  RH  056%=      5-min Rain = 0
KPD1 170914Z 19010KT 25/16 A3002 RMK A01 T02530159  RH  056%=      5-min Rain = 0
KPD1 170915Z 19012G18KT 25/16 A3002 RMK A01 T02530158  RH  056%=      5-min Rain = 0
KPD1 170916Z 19011KT 25/16 A3002 RMK A01 T02540159  RH  056%=      5-min Rain = 0
KPD1 170917Z 19011G16KT 25/16 A3002 RMK A01 T02540159  RH  056%=      5-min Rain = 0
KPD1 170918Z 18011G17KT 25/16 A3002 RMK A01 T02540158  RH  055%=      5-min Rain = 0
KPD1 170919Z 19016KT 25/16 A3002 RMK A01 T02540158  RH  055%=      5-min Rain = 0
KPD1 170920Z 20012G20KT 26/16 A3002 RMK A01 T02550159  RH  055%=      5-min Rain = 0
KPD1 170921Z 20014KT 26/16 A3002 RMK A01 T02550159  RH  055%=      5-min Rain = 0
KPD1 170922Z 20013KT 26/16 A3002 RMK A01 T02560159  RH  055%=      5-min Rain = 0
KPD1 170923Z 20013G20KT 26/16 A3002 RMK A01 T02570160  RH  055%=      5-min Rain = 0
KPD1 170924Z 19015KT 26/16 A3002 RMK A01 T02570159  RH  055%=      5-min Rain = 0
KPD1 170925Z 19012G18KT 26/16 A3002 RMK A01 T02570159  RH  055%=      5-min Rain = 0
KPD1 170926Z 19015KT 26/16 A3002 RMK A01 T02580159  RH  054%=      5-min Rain = 0
KPD1 170927Z 20011G16KT 26/16 A3002 RMK A01 T02580160  RH  054%=      5-min Rain = 0
KPD1 170928Z 19015G22KT 26/16 A3002 RMK A01 T02580160  RH  054%=      5-min Rain = 0
KPD1 170929Z 20015G21KT 26/16 A3002 RMK A01 T02580159  RH  054%=      5-min Rain = 0
KPD1 170930Z 19012KT 26/16 A3002 RMK A01 T02580159  RH  054%=      5-min Rain = 0
KPD1 170931Z 19014KT 26/16 A3002 RMK A01 T02590160  RH  054%=      5-min Rain = 0
KPD1 170932Z 19014G21KT 26/16 A3002 RMK A01 T02590160  RH  054%=      5-min Rain = 0
KPD1 170933Z 19018KT 26/16 A3002 RMK A01 T02590160  RH  054%=      5-min Rain = 0
KPD1 170934Z 19018KT 26/16 A3002 RMK A01 T02600160  RH  054%=      5-min Rain = 0
KPD1 170935Z 20011G21KT 26/16 A3002 RMK A01 T02600160  RH  054%=      5-min Rain = 0
KPD1 170936Z 19009G14KT 26/16 A3002 RMK A01 T02610160  RH  054%=      5-min Rain = 0
KPD1 170937Z 19013KT 26/16 A3002 RMK A01 T02600160  RH  054%=      5-min Rain = 0
KPD1 170938Z 19012G19KT 26/16 A3002 RMK A01 T02590160  RH  054%=      5-min Rain = 0
KPD1 170939Z 20015G20KT 26/16 A3002 RMK A01 T02590160  RH  054%=      5-min Rain = 0
KPD1 170940Z 19012G18KT 26/16 A3002 RMK A01 T02580159  RH  054%=      5-min Rain = 0
KPD1 170941Z 20011G21KT 26/16 A3002 RMK A01 T02590160  RH  054%=      5-min Rain = 0
KPD1 170942Z 19013KT 26/16 A3002 RMK A01 T02590160  RH  054%=      5-min Rain = 0
KPD1 170943Z 20011KT 26/16 A3002 RMK A01 T02580160  RH  055%=      5-min Rain = 0
KPD1 170944Z 19009KT 26/16 A3002 RMK A01 T02580160  RH  055%=      5-min Rain = 0
KPD1 170945Z 19013G18KT 26/16 A3002 RMK A01 T02580160  RH  055%=      5-min Rain = 0
KPD1 170946Z 20010KT 26/16 A3002 RMK A01 T02580160  RH  055%=      5-min Rain = 0
KPD1 170947Z 19011G16KT 26/16 A3002 RMK A01 T02580160  RH  055%=      5-min Rain = 0
KPD1 170948Z 20011KT 26/16 A3002 RMK A01 T02580160  RH  055%=      5-min Rain = 0
KPD1 170949Z 19013KT 26/16 A3002 RMK A01 T02570160  RH  055%=      5-min Rain = 0
KPD1 170950Z 19010G15KT 26/16 A3002 RMK A01 T02570160  RH  055%=      5-min Rain = 0
KPD1 170951Z 19015KT 26/16 A3002 RMK A01 T02570160  RH  055%=      5-min Rain = 0
KPD1 170952Z 19014G19KT 26/16 A3002 RMK A01 T02570160  RH  055%=      5-min Rain = 0
KPD1 170953Z 19014KT 26/16 A3002 RMK A01 T02580160  RH  055%=      5-min Rain = 0
KPD1 170954Z 19014KT 26/16 A3002 RMK A01 T02580160  RH  054%=      5-min Rain = 0
KPD1 170955Z 20013G19KT 26/16 A3002 RMK A01 T02580159  RH  054%=      5-min Rain = 0
KPD1 170956Z 18013KT 26/16 A3002 RMK A01 T02580160  RH  054%=      5-min Rain = 0
KPD1 170957Z 19010KT 26/16 A3002 RMK A01 T02580160  RH  055%=      5-min Rain = 0
KPD1 170958Z 18013G21KT 26/16 A3002 RMK A01 T02570160  RH  055%=      5-min Rain = 0
KPD1 170959Z 20016KT 26/16 A3002 RMK A01 T02580160  RH  055%=      5-min Rain = 0
KPD1 171000Z 19016KT 26/16 A3002 RMK A01 T02570159  RH  055%=      5-min Rain = 0
KPD1 171001Z 20014G22KT 26/16 A3002 RMK A01 T02590160  RH  054%=      5-min Rain = 0
KPD1 171002Z 20015KT 26/16 A3002 RMK A01 T02580160  RH  054%=      5-min Rain = 0
KPD1 171003Z 20012G17KT 26/16 A3002 RMK A01 T02580160  RH  054%=      5-min Rain = 0
KPD1 171004Z 20013KT 26/16 A3002 RMK A01 T02580159  RH  054%=      5-min Rain = 0
KPD1 171005Z 19013G18KT 26/16 A3002 RMK A01 T02580159  RH  055%=      5-min Rain = 0
KPD1 171006Z 21013G21KT 26/16 A3002 RMK A01 T02580159  RH  055%=      5-min Rain = 0
KPD1 171007Z 20015KT 26/16 A3002 RMK A01 T02580159  RH  055%=      5-min Rain = 0
KPD1 171008Z 19013G19KT 26/16 A3002 RMK A01 T02580160  RH  055%=      5-min Rain = 0
KPD1 171009Z 19010G15KT 26/16 A3002 RMK A01 T02580160  RH  055%=      5-min Rain = 0
KPD1 171010Z 19013G18KT 26/16 A3002 RMK A01 T02580160  RH  055%=      5-min Rain = 0
KPD1 171011Z 19015G21KT 26/16 A3002 RMK A01 T02570160  RH  055%=      5-min Rain = 0
KPD1 171012Z 20013KT 26/16 A3002 RMK A01 T02580160  RH  055%=      5-min Rain = 0
KPD1 171013Z 20014KT 26/16 A3002 RMK A01 T02570160  RH  055%=      5-min Rain = 0
KPD1 171014Z 20011KT 26/16 A3002 RMK A01 T02580160  RH  055%=      5-min Rain = 0
KPD1 171015Z 20014KT 26/16 A3002 RMK A01 T02570160  RH  055%=      5-min Rain = 0
KPD1 171016Z 20016G21KT 26/16 A3002 RMK A01 T02580161  RH  055%=      5-min Rain = 0
KPD1 171017Z 19017KT 26/16 A3002 RMK A01 T02570160  RH  055%=      5-min Rain = 0
KPD1 171018Z 20013G19KT 26/16 A3002 RMK A01 T02570160  RH  055%=      5-min Rain = 0
KPD1 171019Z 19008KT 26/16 A3002 RMK A01 T02570160  RH  055%=      5-min Rain = 0
KPD1 171020Z 20015KT 26/16 A3002 RMK A01 T02570160  RH  055%=      5-min Rain = 0
KPD1 171021Z 20014KT 26/16 A3002 RMK A01 T02570161  RH  055%=      5-min Rain = 0
KPD1 171022Z 20010G15KT 26/16 A3002 RMK A01 T02560160  RH  055%=      5-min Rain = 0
KPD1 171023Z 20013KT 26/16 A3002 RMK A01 T02560160  RH  055%=      5-min Rain = 0
KPD1 171024Z 20013KT 26/16 A3002 RMK A01 T02570160  RH  055%=      5-min Rain = 0
KPD1 171025Z 19011G16KT 26/16 A3002 RMK A01 T02570161  RH  055%=      5-min Rain = 0
KPD1 171026Z 20012KT 26/16 A3002 RMK A01 T02560160  RH  055%=      5-min Rain = 0
KPD1 171027Z 20012G18KT 26/16 A3002 RMK A01 T02560160  RH  055%=      5-min Rain = 0
KPD1 171028Z 20012G17KT 26/16 A3002 RMK A01 T02550160  RH  056%=      5-min Rain = 0
KPD1 171029Z 19010G15KT 26/16 A3002 RMK A01 T02560161  RH  056%=      5-min Rain = 0
KPD1 171030Z 20010KT 26/16 A3002 RMK A01 T02560161  RH  056%=      5-min Rain = 0
KPD1 171031Z 20013G21KT 25/16 A3002 RMK A01 T02540160  RH  056%=      5-min Rain = 0
KPD1 171032Z 20016G24KT 25/16 A3002 RMK A01 T02540160  RH  056%=      5-min Rain = 0
KPD1 171033Z 20014G19KT 25/16 A3002 RMK A01 T02540160  RH  056%=      5-min Rain = 0
KPD1 171034Z 20014G21KT 26/16 A3002 RMK A01 T02550160  RH  056%=      5-min Rain = 0
KPD1 171035Z 20017KT 26/16 A3002 RMK A01 T02560161  RH  056%=      5-min Rain = 0
KPD1 171036Z 20013G18KT 26/16 A3002 RMK A01 T02560161  RH  056%=      5-min Rain = 0
KPD1 171037Z 19014KT 26/16 A3002 RMK A01 T02550160  RH  056%=      5-min Rain = 0
KPD1 171038Z 20012KT 26/16 A3002 RMK A01 T02560161  RH  056%=      5-min Rain = 0
KPD1 171039Z 20014G21KT 26/16 A3002 RMK A01 T02550161  RH  056%=      5-min Rain = 0
KPD1 171040Z 20014G21KT 26/16 A3002 RMK A01 T02550161  RH  056%=      5-min Rain = 0
KPD1 171041Z 20013G21KT 26/16 A3002 RMK A01 T02550161  RH  056%=      5-min Rain = 0
KPD1 171042Z 20014G19KT 26/16 A3002 RMK A01 T02550161  RH  056%=      5-min Rain = 0
KPD1 171043Z 20012KT 26/16 A3002 RMK A01 T02550161  RH  056%=      5-min Rain = 0
KPD1 171044Z 19013KT 26/16 A3002 RMK A01 T02550160  RH  056%=      5-min Rain = 0
KPD1 171045Z 20014KT 26/16 A3002 RMK A01 T02550161  RH  056%=      5-min Rain = 0
KPD1 171046Z 20017KT 26/16 A3002 RMK A01 T02550161  RH  056%=      5-min Rain = 0
KPD1 171047Z 20019G24KT 26/16 A3002 RMK A01 T02550161  RH  056%=      5-min Rain = 0
KPD1 171048Z 20016KT 26/16 A3002 RMK A01 T02560160  RH  056%=      5-min Rain = 0
KPD1 171049Z 20016KT 26/16 A3002 RMK A01 T02560161  RH  055%=      5-min Rain = 0
KPD1 171050Z 20015KT 26/16 A3002 RMK A01 T02560160  RH  055%=      5-min Rain = 0
KPD1 171051Z 20017KT 26/16 A3002 RMK A01 T02560160  RH  055%=      5-min Rain = 0
KPD1 171052Z 20014G19KT 26/16 A3002 RMK A01 T02560161  RH  056%=      5-min Rain = 0
KPD1 171053Z 20014G19KT 26/16 A3002 RMK A01 T02560161  RH  056%=      5-min Rain = 0
KPD1 171054Z 20014KT 26/16 A3002 RMK A01 T02560161  RH  056%=      5-min Rain = 0
KPD1 171055Z 20012G20KT 26/16 A3002 RMK A01 T02560161  RH  056%=      5-min Rain = 0
KPD1 171056Z 20012G18KT 26/16 A3002 RMK A01 T02550160  RH  056%=      5-min Rain = 0
KPD1 171057Z 20015KT 25/16 A3002 RMK A01 T02540161  RH  056%=      5-min Rain = 0
KPD1 171058Z 21014G19KT 25/16 A3002 RMK A01 T02540160  RH  056%=      5-min Rain = 0
KPD1 171059Z 21011G18KT 25/16 A3002 RMK A01 T02540160  RH  056%=      5-min Rain = 0
KPD1 171100Z 20012KT 25/16 A3002 RMK A01 T02540161  RH  056%=      5-min Rain = 0
KPD1 171101Z 20016G22KT 25/16 A3002 RMK A01 T02540161  RH  056%=      5-min Rain = 0
KPD1 171102Z 20015G21KT 25/16 A3002 RMK A01 T02530160  RH  056%=      5-min Rain = 0
KPD1 171103Z 20010KT 25/16 A3002 RMK A01 T02530160  RH  056%=      5-min Rain = 0
KPD1 171104Z 19015G21KT 25/16 A3002 RMK A01 T02540161  RH  056%=      5-min Rain = 0
KPD1 171105Z 20012G18KT 25/16 A3002 RMK A01 T02530160  RH  056%=      5-min Rain = 0
KPD1 171106Z 19011G19KT 25/16 A3002 RMK A01 T02530160  RH  056%=      5-min Rain = 0
KPD1 171107Z 21013G21KT 25/16 A3002 RMK A01 T02540160  RH  056%=      5-min Rain = 0
KPD1 171108Z 20011KT 25/16 A3002 RMK A01 T02540160  RH  056%=      5-min Rain = 0
KPD1 171109Z 20013G19KT 25/16 A3002 RMK A01 T02530160  RH  056%=      5-min Rain = 0
KPD1 171110Z 20012KT 25/16 A3002 RMK A01 T02530160  RH  056%=      5-min Rain = 0
KPD1 171111Z 20013KT 25/16 A3002 RMK A01 T02540161  RH  056%=      5-min Rain = 0
KPD1 171112Z 20014KT 25/16 A3002 RMK A01 T02530160  RH  056%=      5-min Rain = 0
KPD1 171113Z 19014KT 25/16 A3003 RMK A01 T02540161  RH  056%=      5-min Rain = 0
KPD1 171114Z 19010KT 25/16 A3002 RMK A01 T02530160  RH  056%=      5-min Rain = 0
KPD1 171115Z 20012KT 25/16 A3002 RMK A01 T02520160  RH  056%=      5-min Rain = 0
KPD1 171116Z 20011G16KT 25/16 A3003 RMK A01 T02520160  RH  057%=      5-min Rain = 0
KPD1 171117Z 20015KT 25/16 A3003 RMK A01 T02520160  RH  057%=      5-min Rain = 0
KPD1 171118Z 20013G19KT 25/16 A3003 RMK A01 T02520160  RH  057%=      5-min Rain = 0
KPD1 171119Z 20012KT 25/16 A3003 RMK A01 T02520160  RH  057%=      5-min Rain = 0
KPD1 171120Z 21013KT 25/16 A3003 RMK A01 T02520160  RH  057%=      5-min Rain = 0
KPD1 171121Z 20012KT 25/16 A3003 RMK A01 T02520160  RH  057%=      5-min Rain = 0
KPD1 171122Z 20013G18KT 25/16 A3003 RMK A01 T02520160  RH  057%=      5-min Rain = 0
KPD1 171123Z 20013KT 25/16 A3003 RMK A01 T02520160  RH  057%=      5-min Rain = 0
KPD1 171124Z 21013G18KT 25/16 A3003 RMK A01 T02520160  RH  057%=      5-min Rain = 0
KPD1 171125Z 21011KT 25/16 A3003 RMK A01 T02520160  RH  057%=      5-min Rain = 0
KPD1 171126Z 20012G19KT 25/16 A3003 RMK A01 T02510160  RH  057%=      5-min Rain = 0
KPD1 171127Z 20015G21KT 25/16 A3003 RMK A01 T02510160  RH  057%=      5-min Rain = 0
KPD1 171128Z 21015G20KT 25/16 A3003 RMK A01 T02510160  RH  057%=      5-min Rain = 0
KPD1 171129Z 21013G19KT 25/16 A3003 RMK A01 T02520160  RH  057%=      5-min Rain = 0
KPD1 171130Z 20011KT 25/16 A3003 RMK A01 T02510160  RH  057%=      5-min Rain = 0
KPD1 171131Z 20011G16KT 25/16 A3003 RMK A01 T02510160  RH  057%=      5-min Rain = 0
KPD1 171132Z 19014KT 25/16 A3003 RMK A01 T02510160  RH  057%=      5-min Rain = 0
KPD1 171133Z 21010KT 25/16 A3003 RMK A01 T02510160  RH  057%=      5-min Rain = 0
KPD1 171134Z 20014KT 25/16 A3003 RMK A01 T02500160  RH  057%=      5-min Rain = 0
KPD1 171135Z 21012KT 25/16 A3003 RMK A01 T02500160  RH  057%=      5-min Rain = 0
KPD1 171136Z 20014KT 25/16 A3003 RMK A01 T02500160  RH  057%=      5-min Rain = 0
KPD1 171137Z 20014KT 25/16 A3003 RMK A01 T02500160  RH  057%=      5-min Rain = 0
KPD1 171138Z 20014G19KT 25/16 A3003 RMK A01 T02500160  RH  057%=      5-min Rain = 0
KPD1 171139Z 20014G20KT 25/16 A3003 RMK A01 T02500160  RH  057%=      5-min Rain = 0
KPD1 171140Z 21014G19KT 25/16 A3002 RMK A01 T02500160  RH  057%=      5-min Rain = 0
KPD1 171141Z 21013G23KT 25/16 A3002 RMK A01 T02500160  RH  057%=      5-min Rain = 0
KPD1 171142Z 21014G19KT 25/16 A3003 RMK A01 T02500160  RH  057%=      5-min Rain = 0
KPD1 171143Z 21015KT 25/16 A3003 RMK A01 T02510161  RH  057%=      5-min Rain = 0
KPD1 171144Z 21012KT 25/16 A3003 RMK A01 T02500160  RH  057%=      5-min Rain = 0
KPD1 171145Z 21013G18KT 25/16 A3003 RMK A01 T02500160  RH  057%=      5-min Rain = 0
KPD1 171146Z 21012KT 25/16 A3003 RMK A01 T02500160  RH  057%=      5-min Rain = 0
KPD1 171147Z 21013KT 25/16 A3003 RMK A01 T02490160  RH  058%=      5-min Rain = 0
KPD1 171148Z 21014G19KT 25/16 A3003 RMK A01 T02490160  RH  058%=      5-min Rain = 0
KPD1 171149Z 21012G19KT 25/16 A3003 RMK A01 T02490161  RH  058%=      5-min Rain = 0
KPD1 171150Z 22012KT 25/16 A3003 RMK A01 T02490161  RH  058%=      5-min Rain = 0
KPD1 171151Z 21012KT 25/16 A3003 RMK A01 T02490160  RH  058%=      5-min Rain = 0
KPD1 171152Z 21013KT 25/16 A3003 RMK A01 T02480160  RH  058%=      5-min Rain = 0
KPD1 171153Z 21014G19KT 25/16 A3003 RMK A01 T02480160  RH  058%=      5-min Rain = 0
KPD1 171154Z 21013KT 25/16 A3003 RMK A01 T02480160  RH  058%=      5-min Rain = 0
KPD1 171155Z 22016KT 25/16 A3003 RMK A01 T02480160  RH  058%=      5-min Rain = 0
KPD1 171156Z 22014KT 25/16 A3003 RMK A01 T02480160  RH  058%=      5-min Rain = 0
KPD1 171157Z 22013G21KT 25/16 A3003 RMK A01 T02480160  RH  058%=      5-min Rain = 0
KPD1 171158Z 21015G23KT 25/16 A3003 RMK A01 T02480161  RH  058%=      5-min Rain = 0
KPD1 171159Z 22014G21KT 25/16 A3003 RMK A01 T02480160  RH  058%=      5-min Rain = 0
KPD1 171200Z 21014KT 25/16 A3003 RMK A01 T02480161  RH  058%=      5-min Rain = 0
KPD1 171201Z 22015G23KT 25/16 A3003 RMK A01 T02490161  RH  058%=      5-min Rain = 0
KPD1 171202Z 21014G19KT 25/16 A3003 RMK A01 T02490161  RH  058%=      5-min Rain = 0
KPD1 171203Z 22013G21KT 25/16 A3003 RMK A01 T02490161  RH  058%=      5-min Rain = 0
KPD1 171204Z 21015G21KT 25/16 A3003 RMK A01 T02490161  RH  058%=      5-min Rain = 0
KPD1 171205Z 21015KT 25/16 A3003 RMK A01 T02490161  RH  058%=      5-min Rain = 0
KPD1 171206Z 22013KT 25/16 A3003 RMK A01 T02490161  RH  058%=      5-min Rain = 0
KPD1 171207Z 21011KT 25/16 A3003 RMK A01 T02490161  RH  058%=      5-min Rain = 0
KPD1 171208Z 21012KT 25/16 A3003 RMK A01 T02490162  RH  058%=      5-min Rain = 0
KPD1 171209Z 22012KT 25/16 A3003 RMK A01 T02480161  RH  058%=      5-min Rain = 0
KPD1 171210Z 21013KT 25/16 A3003 RMK A01 T02480161  RH  058%=      5-min Rain = 0
KPD1 171211Z 22012KT 25/16 A3003 RMK A01 T02470161  RH  059%=      5-min Rain = 0
KPD1 171212Z 22014G21KT 25/16 A3003 RMK A01 T02470161  RH  059%=      5-min Rain = 0
KPD1 171213Z 22011KT 25/16 A3003 RMK A01 T02470161  RH  059%=      5-min Rain = 0
KPD1 171214Z 22013KT 25/16 A3003 RMK A01 T02470161  RH  059%=      5-min Rain = 0
KPD1 171215Z 22013KT 25/16 A3003 RMK A01 T02470161  RH  059%=      5-min Rain = 0
KPD1 171216Z 21013KT 25/16 A3003 RMK A01 T02470162  RH  059%=      5-min Rain = 0
KPD1 171217Z 22014KT 25/16 A3003 RMK A01 T02470161  RH  059%=      5-min Rain = 0
KPD1 171218Z 22011G17KT 25/16 A3003 RMK A01 T02470161  RH  059%=      5-min Rain = 0
KPD1 171219Z 21012G17KT 25/16 A3003 RMK A01 T02460161  RH  059%=      5-min Rain = 0
KPD1 171220Z 21012KT 25/16 A3003 RMK A01 T02460161  RH  059%=      5-min Rain = 0
KPD1 171221Z 22014KT 25/16 A3003 RMK A01 T02460161  RH  059%=      5-min Rain = 0
KPD1 171222Z 22013G19KT 25/16 A3003 RMK A01 T02460161  RH  059%=      5-min Rain = 0
KPD1 171223Z 21012G18KT 25/16 A3003 RMK A01 T02470161  RH  059%=      5-min Rain = 0
KPD1 171224Z 21012KT 25/16 A3003 RMK A01 T02470161  RH  059%=      5-min Rain = 0
KPD1 171225Z 21013G18KT 25/16 A3003 RMK A01 T02470161  RH  059%=      5-min Rain = 0
KPD1 171226Z 22013KT 25/16 A3003 RMK A01 T02470161  RH  059%=      5-min Rain = 0
KPD1 171227Z 21012G17KT 25/16 A3003 RMK A01 T02470162  RH  059%=      5-min Rain = 0
KPD1 171228Z 22011G18KT 25/16 A3003 RMK A01 T02470162  RH  059%=      5-min Rain = 0
KPD1 171229Z 21011KT 25/16 A3003 RMK A01 T02480162  RH  059%=      5-min Rain = 0
KPD1 171230Z 21014KT 25/16 A3003 RMK A01 T02480163  RH  059%=      5-min Rain = 0
KPD1 171231Z 22011KT 25/16 A3004 RMK A01 T02480162  RH  059%=      5-min Rain = 0
KPD1 171232Z 21014KT 25/16 A3004 RMK A01 T02480163  RH  059%=      5-min Rain = 0
KPD1 171233Z 21009KT 25/16 A3004 RMK A01 T02480163  RH  059%=      5-min Rain = 0
KPD1 171234Z 21013G20KT 25/16 A3003 RMK A01 T02490164  RH  059%=      5-min Rain = 0
KPD1 171235Z 21012KT 25/16 A3004 RMK A01 T02490163  RH  059%=      5-min Rain = 0
KPD1 171236Z 22011G16KT 25/16 A3004 RMK A01 T02500164  RH  059%=      5-min Rain = 0
KPD1 171237Z 22010G15KT 25/17 A3004 RMK A01 T02500165  RH  059%=      5-min Rain = 0
KPD1 171238Z 21010KT 25/16 A3004 RMK A01 T02500164  RH  059%=      5-min Rain = 0
KPD1 171239Z 21009G14KT 25/17 A3004 RMK A01 T02500165  RH  059%=      5-min Rain = 0
KPD1 171240Z 21009KT 25/17 A3004 RMK A01 T02500165  RH  059%=      5-min Rain = 0
KPD1 171241Z 21012KT 25/17 A3004 RMK A01 T02510165  RH  059%=      5-min Rain = 0
KPD1 171242Z 21010KT 25/17 A3004 RMK A01 T02510165  RH  059%=      5-min Rain = 0
KPD1 171243Z 21009G15KT 25/17 A3004 RMK A01 T02510165  RH  059%=      5-min Rain = 0
KPD1 171244Z 20011KT 25/17 A3004 RMK A01 T02510165  RH  059%=      5-min Rain = 0
KPD1 171245Z 20011KT 25/17 A3004 RMK A01 T02520166  RH  059%=      5-min Rain = 0
KPD1 171246Z 21011KT 25/17 A3004 RMK A01 T02520166  RH  059%=      5-min Rain = 0
KPD1 171247Z 20009KT 25/17 A3004 RMK A01 T02530166  RH  059%=      5-min Rain = 0
KPD1 171248Z 20010KT 25/17 A3004 RMK A01 T02530167  RH  059%=      5-min Rain = 0
KPD1 171249Z 20010KT 25/17 A3004 RMK A01 T02530166  RH  059%=      5-min Rain = 0
KPD1 171250Z 20011KT 25/17 A3004 RMK A01 T02530166  RH  059%=      5-min Rain = 0
KPD1 171251Z 20012KT 25/17 A3004 RMK A01 T02540166  RH  058%=      5-min Rain = 0
KPD1 171252Z 20008G13KT 25/17 A3004 RMK A01 T02540166  RH  058%=      5-min Rain = 0
KPD1 171253Z 20008KT 25/17 A3004 RMK A01 T02540167  RH  058%=      5-min Rain = 0
KPD1 171254Z 20010KT 26/17 A3004 RMK A01 T02550167  RH  058%=      5-min Rain = 0
KPD1 171255Z 19009KT 26/17 A3004 RMK A01 T02550167  RH  058%=      5-min Rain = 0
KPD1 171256Z 20007KT 26/17 A3004 RMK A01 T02550168  RH  058%=      5-min Rain = 0
KPD1 171257Z 21008KT 26/17 A3004 RMK A01 T02560168  RH  058%=      5-min Rain = 0
KPD1 171258Z 20010KT 26/17 A3004 RMK A01 T02560168  RH  058%=      5-min Rain = 0
KPD1 171259Z 19008G13KT 26/17 A3004 RMK A01 T02570168  RH  058%=      5-min Rain = 0
KPD1 171300Z 19008KT 26/17 A3004 RMK A01 T02570169  RH  058%=      5-min Rain = 0
KPD1 171301Z 19012KT 26/17 A3004 RMK A01 T02580169  RH  058%=      5-min Rain = 0
KPD1 171302Z 19012KT 26/17 A3004 RMK A01 T02590169  RH  058%=      5-min Rain = 0
KPD1 171303Z 19009KT 26/17 A3004 RMK A01 T02590169  RH  057%=      5-min Rain = 0
KPD1 171304Z 18009KT 26/17 A3005 RMK A01 T02590169  RH  057%=      5-min Rain = 0
KPD1 171305Z 19009KT 26/17 A3005 RMK A01 T02600169  RH  057%=      5-min Rain = 0
KPD1 171306Z 19008KT 26/17 A3005 RMK A01 T02600169  RH  057%=      5-min Rain = 0
KPD1 171307Z 21009KT 26/17 A3005 RMK A01 T02610170  RH  057%=      5-min Rain = 0
KPD1 171308Z 20009KT 26/17 A3005 RMK A01 T02610170  RH  057%=      5-min Rain = 0
KPD1 171309Z 20010G16KT 26/17 A3005 RMK A01 T02610170  RH  057%=      5-min Rain = 0
KPD1 171310Z 19006KT 26/17 A3005 RMK A01 T02610170  RH  057%=      5-min Rain = 0
KPD1 171311Z 19012G17KT 26/17 A3005 RMK A01 T02620170  RH  057%=      5-min Rain = 0
KPD1 171312Z 19009KT 26/17 A3005 RMK A01 T02620170  RH  057%=      5-min Rain = 0
KPD1 171313Z 19010KT 26/17 A3005 RMK A01 T02630170  RH  057%=      5-min Rain = 0
KPD1 171314Z 20009KT 26/17 A3005 RMK A01 T02630171  RH  057%=      5-min Rain = 0
KPD1 171315Z 18009G15KT 26/17 A3005 RMK A01 T02630171  RH  057%=      5-min Rain = 0
KPD1 171316Z 20014G21KT 26/17 A3005 RMK A01 T02640171  RH  057%=      5-min Rain = 0
KPD1 171317Z 20011KT 26/17 A3005 RMK A01 T02640171  RH  056%=      5-min Rain = 0
KPD1 171318Z 18011KT 27/17 A3005 RMK A01 T02650171  RH  056%=      5-min Rain = 0
KPD1 171319Z 20011KT 26/17 A3005 RMK A01 T02640171  RH  056%=      5-min Rain = 0
KPD1 171320Z 19010KT 27/17 A3005 RMK A01 T02650171  RH  056%=      5-min Rain = 0
KPD1 171321Z 19007KT 27/17 A3005 RMK A01 T02660172  RH  056%=      5-min Rain = 0
KPD1 171322Z 18004KT 27/17 A3005 RMK A01 T02660173  RH  057%=      5-min Rain = 0
KPD1 171323Z 19006KT 27/17 A3005 RMK A01 T02660173  RH  057%=      5-min Rain = 0
KPD1 171324Z 18009KT 27/17 A3005 RMK A01 T02680174  RH  056%=      5-min Rain = 0
KPD1 171325Z 18007KT 27/17 A3005 RMK A01 T02680173  RH  056%=      5-min Rain = 0
KPD1 171326Z 19008KT 27/17 A3005 RMK A01 T02680173  RH  056%=      5-min Rain = 0
KPD1 171327Z 19007KT 27/17 A3005 RMK A01 T02680173  RH  056%=      5-min Rain = 0
KPD1 171328Z 18009G15KT 27/17 A3005 RMK A01 T02690174  RH  056%=      5-min Rain = 0
KPD1 171329Z 17009KT 27/17 A3005 RMK A01 T02700173  RH  055%=      5-min Rain = 0
KPD1 171330Z 19010KT 27/17 A3005 RMK A01 T02700174  RH  056%=      5-min Rain = 0
KPD1 171331Z 19011KT 27/17 A3005 RMK A01 T02700174  RH  056%=      5-min Rain = 0
KPD1 171332Z 19011KT 27/17 A3005 RMK A01 T02700174  RH  056%=      5-min Rain = 0
KPD1 171333Z 19011G16KT 27/18 A3006 RMK A01 T02700175  RH  056%=      5-min Rain = 0
KPD1 171334Z 19014KT 27/17 A3006 RMK A01 T02700174  RH  056%=      5-min Rain = 0
KPD1 171335Z 18011G19KT 27/17 A3006 RMK A01 T02710174  RH  056%=      5-min Rain = 0
KPD1 171336Z 20012KT 27/17 A3006 RMK A01 T02700174  RH  056%=      5-min Rain = 0
KPD1 171337Z 21014G20KT 27/18 A3006 RMK A01 T02710175  RH  056%=      5-min Rain = 0
KPD1 171338Z 21010KT 27/18 A3006 RMK A01 T02710175  RH  056%=      5-min Rain = 0
KPD1 171339Z 21013KT 27/18 A3006 RMK A01 T02720176  RH  056%=      5-min Rain = 0
KPD1 171340Z 20009KT 27/18 A3006 RMK A01 T02720175  RH  055%=      5-min Rain = 0
KPD1 171341Z 20009KT 27/18 A3006 RMK A01 T02720176  RH  056%=      5-min Rain = 0
KPD1 171342Z 19008KT 27/18 A3006 RMK A01 T02730177  RH  056%=      5-min Rain = 0
KPD1 171343Z 18009KT 28/18 A3006 RMK A01 T02750177  RH  055%=      5-min Rain = 0
KPD1 171344Z 19006KT 28/18 A3006 RMK A01 T02750177  RH  055%=      5-min Rain = 0
KPD1 171345Z 18012G17KT 28/18 A3006 RMK A01 T02770178  RH  055%=      5-min Rain = 0
KPD1 171346Z 18009G14KT 28/18 A3006 RMK A01 T02760176  RH  054%=      5-min Rain = 0
KPD1 171347Z 18010KT 28/18 A3006 RMK A01 T02780177  RH  054%=      5-min Rain = 0
KPD1 171348Z 18012G18KT 28/18 A3006 RMK A01 T02770177  RH  054%=      5-min Rain = 0
KPD1 171349Z 19015KT 28/18 A3006 RMK A01 T02780176  RH  054%=      5-min Rain = 0
KPD1 171350Z 19016KT 28/18 A3006 RMK A01 T02780176  RH  054%=      5-min Rain = 0
KPD1 171351Z 19012KT 28/18 A3006 RMK A01 T02780175  RH  054%=      5-min Rain = 0
KPD1 171352Z 19018G23KT 28/18 A3006 RMK A01 T02770175  RH  054%=      5-min Rain = 0
KPD1 171353Z 19015KT 28/18 A3006 RMK A01 T02770175  RH  054%=      5-min Rain = 0
KPD1 171354Z 19011KT 28/18 A3006 RMK A01 T02780176  RH  054%=      5-min Rain = 0
KPD1 171355Z 19011KT 28/18 A3006 RMK A01 T02780176  RH  054%=      5-min Rain = 0
KPD1 171356Z 19009KT 28/18 A3006 RMK A01 T02780176  RH  054%=      5-min Rain = 0
KPD1 171357Z 21009KT 28/18 A3006 RMK A01 T02790177  RH  054%=      5-min Rain = 0
KPD1 171358Z 19010KT 28/18 A3006 RMK A01 T02800177  RH  053%=      5-min Rain = 0
KPD1 171359Z 18011G17KT 28/18 A3006 RMK A01 T02810176  RH  053%=      5-min Rain = 0
KPD1 171400Z 18012G18KT 28/18 A3006 RMK A01 T02810176  RH  053%=      5-min Rain = 0
KPD1 171401Z 19013G18KT 28/18 A3006 RMK A01 T02820176  RH  053%=      5-min Rain = 0
KPD1 171402Z 19015G21KT 28/18 A3006 RMK A01 T02820175  RH  052%=      5-min Rain = 0
KPD1 171403Z 19014KT 28/17 A3006 RMK A01 T02820174  RH  052%=      5-min Rain = 0
KPD1 171404Z 20016G21KT 28/17 A3006 RMK A01 T02820174  RH  052%=      5-min Rain = 0
KPD1 171405Z 20014G19KT 28/18 A3006 RMK A01 T02820175  RH  052%=      5-min Rain = 0
KPD1 171406Z 19015KT 28/18 A3006 RMK A01 T02820175  RH  052%=      5-min Rain = 0
KPD1 171407Z 19015G20KT 28/17 A3006 RMK A01 T02820174  RH  052%=      5-min Rain = 0
KPD1 171408Z 19013G19KT 28/18 A3006 RMK A01 T02830175  RH  052%=      5-min Rain = 0
KPD1 171409Z 19017G25KT 29/18 A3006 RMK A01 T02850175  RH  051%=      5-min Rain = 0
KPD1 171410Z 20015G21KT 28/18 A3006 RMK A01 T02840175  RH  051%=      5-min Rain = 0
KPD1 171411Z 19017G23KT 29/18 A3006 RMK A01 T02850175  RH  051%=      5-min Rain = 0
KPD1 171412Z 19020KT 29/17 A3006 RMK A01 T02850174  RH  051%=      5-min Rain = 0
KPD1 171413Z 19016G21KT 28/17 A3006 RMK A01 T02840174  RH  051%=      5-min Rain = 0
KPD1 171414Z 19014G22KT 28/17 A3006 RMK A01 T02840174  RH  051%=      5-min Rain = 0
KPD1 171415Z 21014G21KT 28/17 A3006 RMK A01 T02840174  RH  051%=      5-min Rain = 0
KPD1 171416Z 19014G22KT 29/17 A3006 RMK A01 T02860174  RH  051%=      5-min Rain = 0
KPD1 171417Z 19015G20KT 29/17 A3006 RMK A01 T02860174  RH  051%=      5-min Rain = 0
KPD1 171418Z 19016G21KT 29/17 A3006 RMK A01 T02870174  RH  051%=      5-min Rain = 0
KPD1 171419Z 19018G23KT 29/17 A3006 RMK A01 T02870174  RH  050%=      5-min Rain = 0
KPD1 171420Z 19017G23KT 29/17 A3006 RMK A01 T02860174  RH  050%=      5-min Rain = 0
KPD1 171421Z 20015G20KT 29/17 A3006 RMK A01 T02870174  RH  050%=      5-min Rain = 0
KPD1 171422Z 19014G23KT 29/17 A3006 RMK A01 T02870174  RH  050%=      5-min Rain = 0
KPD1 171423Z 19014G19KT 29/17 A3006 RMK A01 T02870174  RH  050%=      5-min Rain = 0
KPD1 171424Z 20017G22KT 29/17 A3006 RMK A01 T02880174  RH  050%=      5-min Rain = 0
KPD1 171425Z 19017KT 29/17 A3006 RMK A01 T02880174  RH  050%=      5-min Rain = 0
KPD1 171426Z 19016G23KT 29/18 A3006 RMK A01 T02890175  RH  050%=      5-min Rain = 0
KPD1 171427Z 19015KT 29/18 A3006 RMK A01 T02900175  RH  050%=      5-min Rain = 0
KPD1 171428Z 19018KT 29/18 A3006 RMK A01 T02900175  RH  050%=      5-min Rain = 0
KPD1 171429Z 19018G23KT 29/17 A3006 RMK A01 T02900173  RH  049%=      5-min Rain = 0
KPD1 171430Z 19014G20KT 29/17 A3006 RMK A01 T02900174  RH  049%=      5-min Rain = 0
KPD1 171431Z 20015G20KT 29/17 A3006 RMK A01 T02900174  RH  050%=      5-min Rain = 0
KPD1 171432Z 21016KT 29/17 A3006 RMK A01 T02910174  RH  049%=      5-min Rain = 0
KPD1 171433Z 20016G21KT 29/17 A3006 RMK A01 T02910174  RH  049%=      5-min Rain = 0
KPD1 171434Z 20018G23KT 29/17 A3006 RMK A01 T02910172  RH  049%=      5-min Rain = 0
KPD1 171435Z 20017KT 29/17 A3006 RMK A01 T02910173  RH  049%=      5-min Rain = 0
KPD1 171436Z 20017G22KT 29/17 A3006 RMK A01 T02910172  RH  049%=      5-min Rain = 0
KPD1 171437Z 19017G22KT 29/17 A3006 RMK A01 T02910171  RH  048%=      5-min Rain = 0
KPD1 171438Z 20020KT 29/17 A3006 RMK A01 T02910172  RH  048%=      5-min Rain = 0
KPD1 171439Z 20018G24KT 29/17 A3006 RMK A01 T02910171  RH  048%=      5-min Rain = 0
KPD1 171440Z 20019G24KT 29/17 A3006 RMK A01 T02920171  RH  048%=      5-min Rain = 0
KPD1 171441Z 20016KT 29/17 A3006 RMK A01 T02920171  RH  048%=      5-min Rain = 0
KPD1 171442Z 20018KT 29/17 A3006 RMK A01 T02910171  RH  048%=      5-min Rain = 0
KPD1 171443Z 20017G23KT 29/17 A3006 RMK A01 T02930172  RH  048%=      5-min Rain = 0
KPD1 171444Z 20014G22KT 29/17 A3006 RMK A01 T02930172  RH  048%=      5-min Rain = 0
KPD1 171445Z 21016G22KT 29/17 A3006 RMK A01 T02940172  RH  048%=      5-min Rain = 0
KPD1 171446Z 20016KT 29/17 A3006 RMK A01 T02940171  RH  048%=      5-min Rain = 0
KPD1 171447Z 21015G22KT 30/17 A3006 RMK A01 T02950172  RH  048%=      5-min Rain = 0
KPD1 171448Z 21016G23KT 30/17 A3006 RMK A01 T02950172  RH  047%=      5-min Rain = 0
KPD1 171449Z 21012KT 30/17 A3006 RMK A01 T02950172  RH  047%=      5-min Rain = 0
KPD1 171450Z 21018G24KT 30/17 A3006 RMK A01 T02960173  RH  047%=      5-min Rain = 0
KPD1 171451Z 20017KT 30/17 A3006 RMK A01 T02970171  RH  047%=      5-min Rain = 0
KPD1 171452Z 19015G21KT 30/17 A3006 RMK A01 T02970172  RH  047%=      5-min Rain = 0
KPD1 171453Z 19016KT 30/17 A3006 RMK A01 T02960172  RH  047%=      5-min Rain = 0
KPD1 171454Z 20017G23KT 30/17 A3006 RMK A01 T02970171  RH  047%=      5-min Rain = 0
KPD1 171455Z 19016G21KT 30/17 A3006 RMK A01 T02980171  RH  047%=      5-min Rain = 0
KPD1 171456Z 20018G24KT 30/17 A3006 RMK A01 T02980172  RH  047%=      5-min Rain = 0
KPD1 171457Z 21018G23KT 30/17 A3006 RMK A01 T02980172  RH  047%=      5-min Rain = 0
KPD1 171458Z 21020KT 30/17 A3006 RMK A01 T02990172  RH  047%=      5-min Rain = 0
KPD1 171459Z 20018G23KT 30/17 A3006 RMK A01 T02980171  RH  046%=      5-min Rain = 0
KPD1 171500Z 22014KT 30/17 A3006 RMK A01 T02980172  RH  047%=      5-min Rain = 0
KPD1 171501Z 20013G20KT 30/17 A3006 RMK A01 T02980174  RH  047%=      5-min Rain = 0
KPD1 171502Z 20015G20KT 30/17 A3006 RMK A01 T03000173  RH  046%=      5-min Rain = 0
KPD1 171503Z 21016G21KT 30/17 A3006 RMK A01 T03020172  RH  046%=      5-min Rain = 0
KPD1 171504Z 20015G22KT 30/17 A3006 RMK A01 T03020173  RH  046%=      5-min Rain = 0
KPD1 171505Z 20014G22KT 30/17 A3006 RMK A01 T03020172  RH  046%=      5-min Rain = 0
KPD1 171506Z 20017KT 30/17 A3006 RMK A01 T03030172  RH  045%=      5-min Rain = 0
KPD1 171507Z 21014G24KT 30/17 A3006 RMK A01 T03040171  RH  045%=      5-min Rain = 0
KPD1 171508Z 22014G21KT 30/17 A3006 RMK A01 T03040170  RH  045%=      5-min Rain = 0
KPD1 171509Z 21013KT 31/17 A3006 RMK A01 T03050172  RH  045%=      5-min Rain = 0
KPD1 171510Z 21014KT 31/17 A3006 RMK A01 T03060172  RH  045%=      5-min Rain = 0
KPD1 171511Z 20012G19KT 31/17 A3006 RMK A01 T03060172  RH  044%=      5-min Rain = 0
KPD1 171512Z 19011G18KT 31/17 A3006 RMK A01 T03070173  RH  045%=      5-min Rain = 0
KPD1 171513Z 21012KT 31/18 A3006 RMK A01 T03090175  RH  045%=      5-min Rain = 0
KPD1 171514Z 19014G19KT 31/18 A3006 RMK A01 T03110175  RH  044%=      5-min Rain = 0
KPD1 171515Z 19015G20KT 31/17 A3006 RMK A01 T03120173  RH  043%=      5-min Rain = 0
KPD1 171516Z 20014G20KT 31/17 A3006 RMK A01 T03110171  RH  043%=      5-min Rain = 0
KPD1 171517Z 20012G19KT 31/17 A3006 RMK A01 T03110173  RH  044%=      5-min Rain = 0
KPD1 171518Z 20011G19KT 31/17 A3006 RMK A01 T03120172  RH  043%=      5-min Rain = 0
KPD1 171519Z 19010G18KT 31/17 A3006 RMK A01 T03130174  RH  043%=      5-min Rain = 0
KPD1 171520Z 20015G24KT 32/17 A3006 RMK A01 T03150174  RH  043%=      5-min Rain = 0
KPD1 171521Z 20015KT 32/17 A3006 RMK A01 T03150172  RH  043%=      5-min Rain = 0
KPD1 171522Z 20014G19KT 32/17 A3006 RMK A01 T03150172  RH  042%=      5-min Rain = 0
KPD1 171523Z 20015KT 32/17 A3006 RMK A01 T03150171  RH  042%=      5-min Rain = 0
KPD1 171524Z 20014G19KT 31/17 A3006 RMK A01 T03140171  RH  042%=      5-min Rain = 0
KPD1 171525Z 20010G15KT 31/17 A3006 RMK A01 T03140171  RH  042%=      5-min Rain = 0
KPD1 171526Z 20014KT 32/17 A3006 RMK A01 T03150172  RH  042%=      5-min Rain = 0
KPD1 171527Z 20017KT 32/17 A3006 RMK A01 T03160170  RH  042%=      5-min Rain = 0
KPD1 171528Z 20016KT 32/17 A3006 RMK A01 T03150169  RH  042%=      5-min Rain = 0
KPD1 171529Z 21016G25KT 32/17 A3006 RMK A01 T03150169  RH  042%=      5-min Rain = 0
KPD1 171530Z 21019KT 31/17 A3006 RMK A01 T03140167  RH  041%=      5-min Rain = 0
KPD1 171531Z 21017G24KT 31/17 A3006 RMK A01 T03130166  RH  041%=      5-min Rain = 0
KPD1 171532Z 21016G22KT 31/17 A3006 RMK A01 T03130168  RH  042%=      5-min Rain = 0
KPD1 171533Z 21014KT 31/17 A3006 RMK A01 T03140169  RH  042%=      5-min Rain = 0
KPD1 171534Z 20011KT 32/17 A3006 RMK A01 T03160170  RH  042%=      5-min Rain = 0
KPD1 171535Z 20012KT 32/17 A3006 RMK A01 T03200174  RH  042%=      5-min Rain = 0
KPD1 171536Z 19011KT 32/17 A3006 RMK A01 T03220170  RH  040%=      5-min Rain = 0
KPD1 171537Z 19016G21KT 32/17 A3006 RMK A01 T03210169  RH  040%=      5-min Rain = 0
KPD1 171538Z 20013G18KT 32/17 A3006 RMK A01 T03210168  RH  040%=      5-min Rain = 0
KPD1 171539Z 20013KT 32/17 A3006 RMK A01 T03210168  RH  040%=      5-min Rain = 0
KPD1 171540Z 20010KT 32/17 A3006 RMK A01 T03220170  RH  040%=      5-min Rain = 0
KPD1 171541Z 20012G17KT 32/17 A3006 RMK A01 T03240172  RH  040%=      5-min Rain = 0
KPD1 171542Z 20015KT 33/17 A3006 RMK A01 T03260166  RH  038%=      5-min Rain = 0
KPD1 171543Z 20014G19KT 33/17 A3006 RMK A01 T03250166  RH  039%=      5-min Rain = 0
KPD1 171544Z 20018KT 32/17 A3006 RMK A01 T03220165  RH  039%=      5-min Rain = 0
KPD1 171545Z 19016G26KT 32/17 A3006 RMK A01 T03200165  RH  039%=      5-min Rain = 0
KPD1 171546Z 20020G25KT 32/16 A3006 RMK A01 T03200164  RH  039%=      5-min Rain = 0
KPD1 171547Z 19015G22KT 32/16 A3006 RMK A01 T03200164  RH  039%=      5-min Rain = 0
KPD1 171548Z 19016KT 32/16 A3006 RMK A01 T03210163  RH  039%=      5-min Rain = 0
KPD1 171549Z 19017G23KT 32/16 A3006 RMK A01 T03210163  RH  039%=      5-min Rain = 0
KPD1 171550Z 21014KT 32/16 A3006 RMK A01 T03200164  RH  039%=      5-min Rain = 0
KPD1 171551Z 20010G15KT 32/17 A3006 RMK A01 T03210166  RH  039%=      5-min Rain = 0
KPD1 171552Z 19018KT 32/17 A3006 RMK A01 T03230165  RH  039%=      5-min Rain = 0
KPD1 171553Z 19013KT 32/16 A3006 RMK A01 T03240163  RH  038%=      5-min Rain = 0
KPD1 171554Z 21018KT 32/16 A3006 RMK A01 T03240164  RH  038%=      5-min Rain = 0
KPD1 171555Z 21018G24KT 32/16 A3006 RMK A01 T03240162  RH  038%=      5-min Rain = 0
KPD1 171556Z 20016G24KT 32/16 A3006 RMK A01 T03240163  RH  038%=      5-min Rain = 0
KPD1 171557Z 20016KT 32/16 A3006 RMK A01 T03240164  RH  038%=      5-min Rain = 0
KPD1 171558Z 20015G20KT 32/16 A3006 RMK A01 T03240163  RH  038%=      5-min Rain = 0
KPD1 171559Z 21017G22KT 32/16 A3006 RMK A01 T03240163  RH  038%=      5-min Rain = 0
KPD1 171600Z 21014G20KT 32/16 A3006 RMK A01 T03240163  RH  038%=      5-min Rain = 0
KPD1 171601Z 20016G21KT 33/16 A3006 RMK A01 T03250163  RH  038%=      5-min Rain = 0
KPD1 171602Z 20016G23KT 33/16 A3006 RMK A01 T03250163  RH  038%=      5-min Rain = 0
KPD1 171603Z 20018G23KT 33/16 A3006 RMK A01 T03250161  RH  037%=      5-min Rain = 0
KPD1 171604Z 21014G19KT 33/16 A3006 RMK A01 T03250162  RH  038%=      5-min Rain = 0
KPD1 171605Z 19015G22KT 33/16 A3006 RMK A01 T03250162  RH  038%=      5-min Rain = 0
KPD1 171606Z 20015G22KT 33/16 A3006 RMK A01 T03260162  RH  037%=      5-min Rain = 0
KPD1 171607Z 20017G24KT 33/16 A3006 RMK A01 T03270163  RH  037%=      5-min Rain = 0
KPD1 171608Z 21018KT 33/16 A3006 RMK A01 T03270162  RH  037%=      5-min Rain = 0
KPD1 171609Z 20017G22KT 33/16 A3006 RMK A01 T03270163  RH  038%=      5-min Rain = 0
KPD1 171610Z 20016G22KT 33/16 A3006 RMK A01 T03260161  RH  037%=      5-min Rain = 0
KPD1 171611Z 21017KT 33/16 A3006 RMK A01 T03270162  RH  037%=      5-min Rain = 0
KPD1 171612Z 20017KT 33/16 A3006 RMK A01 T03250162  RH  038%=      5-min Rain = 0
KPD1 171613Z 20014KT 33/16 A3006 RMK A01 T03250164  RH  038%=      5-min Rain = 0
KPD1 171614Z 20018KT 33/16 A3006 RMK A01 T03270164  RH  038%=      5-min Rain = 0
KPD1 171615Z 20017G22KT 33/16 A3006 RMK A01 T03280163  RH  037%=      5-min Rain = 0
KPD1 171616Z 20016G23KT 33/17 A3005 RMK A01 T03280165  RH  038%=      5-min Rain = 0
KPD1 171617Z 19015KT 33/16 A3006 RMK A01 T03280164  RH  038%=      5-min Rain = 0
KPD1 171618Z 20016G21KT 33/16 A3006 RMK A01 T03280164  RH  037%=      5-min Rain = 0
KPD1 171619Z 20014G19KT 33/17 A3005 RMK A01 T03270165  RH  038%=      5-min Rain = 0
KPD1 171620Z 21017G23KT 33/16 A3005 RMK A01 T03290164  RH  037%=      5-min Rain = 0
KPD1 171621Z 20015G22KT 33/16 A3005 RMK A01 T03300162  RH  037%=      5-min Rain = 0
KPD1 171622Z 20013G18KT 33/16 A3006 RMK A01 T03300164  RH  037%=      5-min Rain = 0
KPD1 171623Z 20013KT 33/17 A3006 RMK A01 T03310166  RH  037%=      5-min Rain = 0
KPD1 171624Z 21009KT 33/17 A3005 RMK A01 T03320165  RH  037%=      5-min Rain = 0
KPD1 171625Z 20010KT 33/17 A3006 RMK A01 T03340170  RH  037%=      5-min Rain = 0
KPD1 171626Z 22010G16KT 34/17 A3005 RMK A01 T03380169  RH  037%=      5-min Rain = 0
KPD1 171627Z 21011KT 34/17 A3005 RMK A01 T03380168  RH  036%=      5-min Rain = 0
KPD1 171628Z 20011KT 34/17 A3005 RMK A01 T03390168  RH  036%=      5-min Rain = 0
KPD1 171629Z 21013G22KT 34/17 A3006 RMK A01 T03390168  RH  036%=      5-min Rain = 0
KPD1 171630Z 20014KT 34/17 A3005 RMK A01 T03400166  RH  035%=      5-min Rain = 0
KPD1 171631Z 20012KT 34/17 A3005 RMK A01 T03390166  RH  036%=      5-min Rain = 0
KPD1 171632Z 20014KT 34/17 A3005 RMK A01 T03390166  RH  036%=      5-min Rain = 0
KPD1 171633Z 21018G23KT 34/16 A3005 RMK A01 T03380164  RH  035%=      5-min Rain = 0
KPD1 171634Z 21014G20KT 34/16 A3005 RMK A01 T03360162  RH  035%=      5-min Rain = 0
KPD1 171635Z 19013G21KT 34/16 A3005 RMK A01 T03350164  RH  036%=      5-min Rain = 0
KPD1 171636Z 19016G21KT 34/16 A3005 RMK A01 T03360163  RH  036%=      5-min Rain = 0
KPD1 171637Z 19017KT 34/16 A3005 RMK A01 T03360163  RH  036%=      5-min Rain = 0
KPD1 171638Z 19012KT 34/17 A3005 RMK A01 T03360165  RH  036%=      5-min Rain = 0
KPD1 171639Z 19018KT 34/16 A3005 RMK A01 T03370163  RH  036%=      5-min Rain = 0
KPD1 171640Z 19014KT 34/16 A3005 RMK A01 T03360161  RH  035%=      5-min Rain = 0
KPD1 171641Z 19015G20KT 34/16 A3005 RMK A01 T03350164  RH  036%=      5-min Rain = 0
KPD1 171642Z 20013G18KT 34/16 A3005 RMK A01 T03360164  RH  036%=      5-min Rain = 0
KPD1 171643Z 20013KT 34/17 A3005 RMK A01 T03380166  RH  036%=      5-min Rain = 0
KPD1 171644Z 19012G18KT 34/17 A3005 RMK A01 T03390166  RH  036%=      5-min Rain = 0
KPD1 171645Z 20012KT 34/17 A3005 RMK A01 T03410166  RH  035%=      5-min Rain = 0
KPD1 171646Z 22011KT 34/17 A3005 RMK A01 T03430167  RH  035%=      5-min Rain = 0
KPD1 171647Z 20010KT 34/17 A3005 RMK A01 T03430167  RH  035%=      5-min Rain = 0
KPD1 171648Z 19014KT 34/17 A3005 RMK A01 T03440166  RH  035%=      5-min Rain = 0
KPD1 171649Z 18015G20KT 34/16 A3005 RMK A01 T03430164  RH  034%=      5-min Rain = 0
KPD1 171650Z 20017KT 34/16 A3005 RMK A01 T03430162  RH  034%=      5-min Rain = 0
KPD1 171651Z 19016KT 34/16 A3005 RMK A01 T03410161  RH  034%=      5-min Rain = 0
KPD1 171652Z 19011G16KT 34/16 A3005 RMK A01 T03410163  RH  035%=      5-min Rain = 0
KPD1 171653Z 20011G16KT 34/17 A3005 RMK A01 T03410165  RH  035%=      5-min Rain = 0
KPD1 171654Z 19012KT 34/17 A3005 RMK A01 T03420166  RH  035%=      5-min Rain = 0
KPD1 171655Z 19015KT 34/17 A3005 RMK A01 T03440165  RH  035%=      5-min Rain = 0
KPD1 171656Z 19015G22KT 34/16 A3005 RMK A01 T03430164  RH  034%=      5-min Rain = 0
KPD1 171657Z 20013KT 34/16 A3005 RMK A01 T03420164  RH  035%=      5-min Rain = 0
KPD1 171658Z 19012G17KT 34/17 A3005 RMK A01 T03440166  RH  035%=      5-min Rain = 0
KPD1 171659Z 20013KT 35/16 A3005 RMK A01 T03450164  RH  034%=      5-min Rain = 0
KPD1 171700Z 20011G19KT 35/17 A3005 RMK A01 T03460165  RH  034%=      5-min Rain = 0
KPD1 171701Z 19012G19KT 35/17 A3005 RMK A01 T03460165  RH  034%=      5-min Rain = 0
KPD1 171702Z 19011KT 35/17 A3005 RMK A01 T03470166  RH  034%=      5-min Rain = 0
KPD1 171703Z 20014KT 35/17 A3005 RMK A01 T03490166  RH  034%=      5-min Rain = 0
KPD1 171704Z 20012G17KT 35/17 A3005 RMK A01 T03500165  RH  033%=      5-min Rain = 0
KPD1 171705Z 19011KT 35/16 A3005 RMK A01 T03470164  RH  034%=      5-min Rain = 0
KPD1 171706Z 18012KT 35/16 A3005 RMK A01 T03480164  RH  034%=      5-min Rain = 0
KPD1 171707Z 20010G15KT 35/17 A3005 RMK A01 T03470165  RH  034%=      5-min Rain = 0
KPD1 171708Z 19013KT 35/16 A3005 RMK A01 T03480164  RH  033%=      5-min Rain = 0
KPD1 171709Z 20012KT 35/16 A3005 RMK A01 T03470164  RH  034%=      5-min Rain = 0
KPD1 171710Z 18013G18KT 35/16 A3005 RMK A01 T03480162  RH  033%=      5-min Rain = 0
KPD1 171711Z 19012KT 35/16 A3004 RMK A01 T03480162  RH  033%=      5-min Rain = 0
KPD1 171712Z 19011G17KT 35/16 A3005 RMK A01 T03480164  RH  034%=      5-min Rain = 0
KPD1 171713Z 20012G17KT 35/16 A3005 RMK A01 T03500164  RH  033%=      5-min Rain = 0
KPD1 171714Z 20015KT 35/16 A3005 RMK A01 T03470159  RH  033%=      5-min Rain = 0
KPD1 171715Z 19014KT 34/16 A3005 RMK A01 T03440161  RH  034%=      5-min Rain = 0
KPD1 171716Z 16016KT 35/16 A3004 RMK A01 T03470160  RH  033%=      5-min Rain = 0
KPD1 171717Z 18011G18KT 35/16 A3004 RMK A01 T03480159  RH  033%=      5-min Rain = 0
KPD1 171718Z 19015KT 35/16 A3004 RMK A01 T03480160  RH  033%=      5-min Rain = 0
KPD1 171719Z 18017KT 35/16 A3005 RMK A01 T03490160  RH  033%=      5-min Rain = 0
KPD1 171720Z 17015KT 35/16 A3005 RMK A01 T03490160  RH  033%=      5-min Rain = 0
KPD1 171721Z 18016KT 35/16 A3005 RMK A01 T03480160  RH  033%=      5-min Rain = 0
KPD1 171722Z 19016KT 35/16 A3005 RMK A01 T03470159  RH  033%=      5-min Rain = 0
KPD1 171723Z 19014G21KT 35/16 A3005 RMK A01 T03460159  RH  033%=      5-min Rain = 0
KPD1 171724Z 19014KT 35/16 A3005 RMK A01 T03470159  RH  033%=      5-min Rain = 0
KPD1 171725Z 21014KT 35/16 A3005 RMK A01 T03480159  RH  032%=      5-min Rain = 0
KPD1 171726Z 20013G18KT 35/16 A3005 RMK A01 T03470158  RH  032%=      5-min Rain = 0
KPD1 171727Z 20012G17KT 35/16 A3005 RMK A01 T03460159  RH  033%=      5-min Rain = 0
KPD1 171728Z 18015G20KT 35/16 A3005 RMK A01 T03460158  RH  033%=      5-min Rain = 0
KPD1 171729Z 19017KT 35/16 A3005 RMK A01 T03470158  RH  032%=      5-min Rain = 0
KPD1 171730Z 20013KT 35/16 A3005 RMK A01 T03480157  RH  032%=      5-min Rain = 0
KPD1 171731Z 21012G17KT 35/16 A3005 RMK A01 T03480159  RH  032%=      5-min Rain = 0
KPD1 171732Z 20010G15KT 35/16 A3004 RMK A01 T03470160  RH  033%=      5-min Rain = 0
KPD1 171733Z 19008KT 35/16 A3004 RMK A01 T03490162  RH  033%=      5-min Rain = 0
KPD1 171734Z 20012G19KT 35/16 A3004 RMK A01 T03540163  RH  032%=      5-min Rain = 0
KPD1 171735Z 19010KT 36/16 A3004 RMK A01 T03560162  RH  032%=      5-min Rain = 0
KPD1 171736Z 18012G18KT 36/16 A3004 RMK A01 T03570162  RH  032%=      5-min Rain = 0
KPD1 171737Z 19014KT 36/16 A3004 RMK A01 T03560160  RH  031%=      5-min Rain = 0
KPD1 171738Z 19009KT 35/16 A3004 RMK A01 T03540160  RH  032%=      5-min Rain = 0
KPD1 171739Z 20010G15KT 35/16 A3004 RMK A01 T03540161  RH  032%=      5-min Rain = 0
KPD1 171740Z 20015G20KT 36/16 A3004 RMK A01 T03560160  RH  031%=      5-min Rain = 0
KPD1 171741Z 19014KT 36/16 A3004 RMK A01 T03550159  RH  031%=      5-min Rain = 0
KPD1 171742Z 19016KT 35/16 A3004 RMK A01 T03540159  RH  031%=      5-min Rain = 0
KPD1 171743Z 17012KT 35/16 A3004 RMK A01 T03540160  RH  032%=      5-min Rain = 0
KPD1 171744Z 17013G18KT 35/16 A3004 RMK A01 T03520159  RH  032%=      5-min Rain = 0
KPD1 171745Z 19010G16KT 35/16 A3004 RMK A01 T03510158  RH  032%=      5-min Rain = 0
KPD1 171746Z 17014G19KT 35/16 A3004 RMK A01 T03510158  RH  032%=      5-min Rain = 0
KPD1 171747Z 17015KT 35/16 A3004 RMK A01 T03510158  RH  032%=      5-min Rain = 0
KPD1 171748Z 17017KT 35/16 A3004 RMK A01 T03510157  RH  031%=      5-min Rain = 0
KPD1 171749Z 19009G16KT 35/16 A3004 RMK A01 T03490157  RH  032%=      5-min Rain = 0
KPD1 171750Z 18011G18KT 35/16 A3004 RMK A01 T03500159  RH  032%=      5-min Rain = 0
KPD1 171751Z 19016KT 35/16 A3004 RMK A01 T03540159  RH  031%=      5-min Rain = 0
KPD1 171752Z 19012G17KT 35/16 A3004 RMK A01 T03540160  RH  032%=      5-min Rain = 0
KPD1 171753Z 17012G17KT 35/16 A3004 RMK A01 T03540158  RH  031%=      5-min Rain = 0
KPD1 171754Z 19015KT 36/16 A3004 RMK A01 T03560160  RH  031%=      5-min Rain = 0
KPD1 171755Z 19015KT 36/16 A3004 RMK A01 T03580158  RH  031%=      5-min Rain = 0
KPD1 171756Z 20015KT 36/16 A3004 RMK A01 T03560158  RH  031%=      5-min Rain = 0
KPD1 171757Z 21014G21KT 35/16 A3004 RMK A01 T03540158  RH  031%=      5-min Rain = 0
KPD1 171758Z 20014KT 35/16 A3004 RMK A01 T03530156  RH  031%=      5-min Rain = 0
KPD1 171759Z 20015KT 35/15 A3004 RMK A01 T03520154  RH  031%=      5-min Rain = 0
KPD1 171800Z 21013KT 35/15 A3004 RMK A01 T03510154  RH  031%=      5-min Rain = 0
KPD1 171801Z 21012G18KT 35/15 A3004 RMK A01 T03510153  RH  031%=      5-min Rain = 0
KPD1 171802Z 20012KT 35/16 A3004 RMK A01 T03510157  RH  032%=      5-min Rain = 0
KPD1 171803Z 19009KT 35/16 A3004 RMK A01 T03540161  RH  032%=      5-min Rain = 0
KPD1 171804Z 17016G21KT 36/16 A3004 RMK A01 T03560161  RH  031%=      5-min Rain = 0
KPD1 171805Z 20016G21KT 36/16 A3004 RMK A01 T03590162  RH  031%=      5-min Rain = 0
KPD1 171806Z 19013G18KT 36/16 A3004 RMK A01 T03560160  RH  031%=      5-min Rain = 0
KPD1 171807Z 18013KT 35/16 A3004 RMK A01 T03540160  RH  031%=      5-min Rain = 0
KPD1 171808Z 17011KT 35/16 A3004 RMK A01 T03540159  RH  031%=      5-min Rain = 0
KPD1 171809Z 17012G17KT 36/16 A3004 RMK A01 T03550160  RH  031%=      5-min Rain = 0
KPD1 171810Z 20011G16KT 36/16 A3004 RMK A01 T03550162  RH  032%=      5-min Rain = 0
KPD1 171811Z 19012KT 36/16 A3004 RMK A01 T03570163  RH  032%=      5-min Rain = 0
KPD1 171812Z 18017KT 36/16 A3004 RMK A01 T03580161  RH  031%=      5-min Rain = 0
KPD1 171813Z 17012G18KT 35/16 A3004 RMK A01 T03540158  RH  031%=      5-min Rain = 0
KPD1 171814Z 19013KT 36/16 A3004 RMK A01 T03550160  RH  031%=      5-min Rain = 0
KPD1 171815Z 18018KT 36/16 A3004 RMK A01 T03560159  RH  031%=      5-min Rain = 0
KPD1 171816Z 17014KT 36/16 A3004 RMK A01 T03550159  RH  031%=      5-min Rain = 0
KPD1 171817Z 17014KT 35/16 A3004 RMK A01 T03520157  RH  031%=      5-min Rain = 0
KPD1 171818Z 17011G16KT 35/16 A3004 RMK A01 T03510158  RH  032%=      5-min Rain = 0
KPD1 171819Z 16013KT 35/16 A3004 RMK A01 T03520160  RH  032%=      5-min Rain = 0
KPD1 171820Z 18010G17KT 35/16 A3004 RMK A01 T03540160  RH  032%=      5-min Rain = 0
KPD1 171821Z 18012G18KT 36/16 A3004 RMK A01 T03550160  RH  032%=      5-min Rain = 0
KPD1 171822Z 17012KT 36/16 A3004 RMK A01 T03550161  RH  032%=      5-min Rain = 0
KPD1 171823Z 17017KT 36/16 A3004 RMK A01 T03560160  RH  031%=      5-min Rain = 0
KPD1 171824Z 17013KT 36/16 A3003 RMK A01 T03550159  RH  031%=      5-min Rain = 0
KPD1 171825Z 18014KT 35/16 A3003 RMK A01 T03540158  RH  031%=      5-min Rain = 0
KPD1 171826Z 18016KT 36/16 A3003 RMK A01 T03550157  RH  031%=      5-min Rain = 0
KPD1 171827Z 18014KT 35/16 A3003 RMK A01 T03530157  RH  031%=      5-min Rain = 0
KPD1 171828Z 18013KT 35/16 A3003 RMK A01 T03520159  RH  032%=      5-min Rain = 0
KPD1 171829Z 19014KT 35/16 A3003 RMK A01 T03530161  RH  032%=      5-min Rain = 0
KPD1 171830Z 17012G18KT 35/16 A3003 RMK A01 T03540161  RH  032%=      5-min Rain = 0
KPD1 171831Z 18012G17KT 36/16 A3003 RMK A01 T03550161  RH  032%=      5-min Rain = 0
KPD1 171832Z 17008G16KT 36/16 A3003 RMK A01 T03580163  RH  031%=      5-min Rain = 0
KPD1 171833Z 17015KT 36/16 A3003 RMK A01 T03600158  RH  030%=      5-min Rain = 0
KPD1 171834Z 17013KT 36/15 A3003 RMK A01 T03590152  RH  029%=      5-min Rain = 0
KPD1 171835Z 18009KT 36/16 A3003 RMK A01 T03570156  RH  030%=      5-min Rain = 0
KPD1 171836Z 16012KT 36/16 A3003 RMK A01 T03590157  RH  030%=      5-min Rain = 0
KPD1 171837Z 15012G19KT 36/16 A3003 RMK A01 T03600159  RH  030%=      5-min Rain = 0
KPD1 171838Z 15014KT 36/16 A3003 RMK A01 T03600158  RH  030%=      5-min Rain = 0
KPD1 171839Z 15008G15KT 36/16 A3003 RMK A01 T03590159  RH  031%=      5-min Rain = 0
KPD1 171840Z 18009KT 36/16 A3003 RMK A01 T03610162  RH  031%=      5-min Rain = 0
KPD1 171841Z 17008G13KT 36/16 A3003 RMK A01 T03640161  RH  030%=      5-min Rain = 0
KPD1 171842Z 19013KT 37/16 A3003 RMK A01 T03650159  RH  030%=      5-min Rain = 0
KPD1 171843Z 18016KT 36/16 A3002 RMK A01 T03640156  RH  029%=      5-min Rain = 0
KPD1 171844Z 18017G23KT 36/15 A3003 RMK A01 T03630154  RH  029%=      5-min Rain = 0
KPD1 171845Z 17010KT 36/15 A3003 RMK A01 T03610154  RH  029%=      5-min Rain = 0
KPD1 171846Z 17010KT 36/15 A3002 RMK A01 T03610153  RH  029%=      5-min Rain = 0
KPD1 171847Z 15010KT 36/15 A3002 RMK A01 T03610151  RH  029%=      5-min Rain = 0
KPD1 171848Z 17011KT 36/15 A3003 RMK A01 T03610153  RH  029%=      5-min Rain = 0
KPD1 171849Z 18011KT 36/15 A3003 RMK A01 T03610154  RH  029%=      5-min Rain = 0
KPD1 171850Z 19012G17KT 36/16 A3003 RMK A01 T03630157  RH  029%=      5-min Rain = 0
KPD1 171851Z 21011KT 36/16 A3003 RMK A01 T03630155  RH  029%=      5-min Rain = 0
KPD1 171852Z 21013G21KT 36/16 A3002 RMK A01 T03630159  RH  030%=      5-min Rain = 0
KPD1 171853Z 20013G18KT 36/16 A3003 RMK A01 T03620161  RH  030%=      5-min Rain = 0
KPD1 171854Z 19009KT 36/16 A3003 RMK A01 T03620161  RH  030%=      5-min Rain = 0
KPD1 171855Z 16012KT 36/16 A3003 RMK A01 T03640160  RH  030%=      5-min Rain = 0
KPD1 171856Z 19012G17KT 36/16 A3003 RMK A01 T03640160  RH  030%=      5-min Rain = 0
KPD1 171857Z 19013G18KT 36/16 A3003 RMK A01 T03630157  RH  030%=      5-min Rain = 0
KPD1 171858Z 17012G17KT 36/16 A3003 RMK A01 T03590155  RH  030%=      5-min Rain = 0
KPD1 171859Z 17012KT 36/16 A3003 RMK A01 T03570158  RH  031%=      5-min Rain = 0
KPD1 171900Z 16013G21KT 36/16 A3002 RMK A01 T03580157  RH  030%=      5-min Rain = 0
KPD1 171901Z 16014KT 36/16 A3002 RMK A01 T03590157  RH  030%=      5-min Rain = 0
KPD1 171902Z 20011KT 36/15 A3003 RMK A01 T03590154  RH  030%=      5-min Rain = 0
KPD1 171903Z 20011KT 36/15 A3003 RMK A01 T03580146  RH  028%=      5-min Rain = 0
KPD1 171904Z 19011KT 35/15 A3003 RMK A01 T03540148  RH  029%=      5-min Rain = 0
KPD1 171905Z 19009KT 36/15 A3003 RMK A01 T03560153  RH  030%=      5-min Rain = 0
KPD1 171906Z 15007G14KT 36/16 A3003 RMK A01 T03590155  RH  030%=      5-min Rain = 0
KPD1 171907Z 15015G22KT 36/16 A3002 RMK A01 T03610156  RH  030%=      5-min Rain = 0
KPD1 171908Z 17014G19KT 36/16 A3002 RMK A01 T03610156  RH  030%=      5-min Rain = 0
KPD1 171909Z 16014G19KT 36/16 A3002 RMK A01 T03580157  RH  030%=      5-min Rain = 0
KPD1 171910Z 16015G21KT 36/16 A3002 RMK A01 T03580159  RH  031%=      5-min Rain = 0
KPD1 171911Z 17013KT 36/16 A3002 RMK A01 T03590158  RH  030%=      5-min Rain = 0
KPD1 171912Z 19012G17KT 36/16 A3002 RMK A01 T03610160  RH  030%=      5-min Rain = 0
KPD1 171913Z 19016KT 37/16 A3002 RMK A01 T03650157  RH  029%=      5-min Rain = 0
KPD1 171914Z 19012G18KT 37/16 A3002 RMK A01 T03660155  RH  029%=      5-min Rain = 0
KPD1 171915Z 19009KT 37/16 A3002 RMK A01 T03660156  RH  029%=      5-min Rain = 0
KPD1 171916Z 19008KT 37/16 A3002 RMK A01 T03670157  RH  029%=      5-min Rain = 0
KPD1 171917Z 19006KT 37/16 A3002 RMK A01 T03700157  RH  029%=      5-min Rain = 0
KPD1 171918Z 16008KT 37/16 A3002 RMK A01 T03700158  RH  029%=      5-min Rain = 0
KPD1 171919Z 17011KT 37/16 A3002 RMK A01 T03710160  RH  029%=      5-min Rain = 0
KPD1 171920Z 17012KT 37/16 A3002 RMK A01 T03710161  RH  029%=      5-min Rain = 0
KPD1 171921Z 16011G16KT 37/16 A3002 RMK A01 T03700160  RH  029%=      5-min Rain = 0
KPD1 171922Z 18010G16KT 37/16 A3002 RMK A01 T03680161  RH  029%=      5-min Rain = 0
KPD1 171923Z 18010KT 37/16 A3002 RMK A01 T03690163  RH  030%=      5-min Rain = 0
KPD1 171924Z 17010KT 37/16 A3002 RMK A01 T03710159  RH  029%=      5-min Rain = 0
KPD1 171925Z 18008KT 37/16 A3002 RMK A01 T03690158  RH  029%=      5-min Rain = 0
KPD1 171926Z 17008KT 37/16 A3002 RMK A01 T03680159  RH  029%=      5-min Rain = 0
KPD1 171927Z 15013G18KT 37/16 A3002 RMK A01 T03690159  RH  029%=      5-min Rain = 0
KPD1 171928Z 14013G18KT 37/16 A3002 RMK A01 T03660157  RH  029%=      5-min Rain = 0
KPD1 171929Z 15011G19KT 37/16 A3002 RMK A01 T03650158  RH  029%=      5-min Rain = 0
KPD1 171930Z 17011KT 37/16 A3002 RMK A01 T03660157  RH  029%=      5-min Rain = 0
KPD1 171931Z 16012KT 37/16 A3002 RMK A01 T03670159  RH  029%=      5-min Rain = 0
KPD1 171932Z 17008G13KT 37/16 A3002 RMK A01 T03670157  RH  029%=      5-min Rain = 0
KPD1 171933Z 16011G20KT 36/16 A3002 RMK A01 T03620155  RH  029%=      5-min Rain = 0
KPD1 171934Z 17015G24KT 36/16 A3002 RMK A01 T03610155  RH  029%=      5-min Rain = 0
KPD1 171935Z 16011G16KT 36/16 A3002 RMK A01 T03610155  RH  029%=      5-min Rain = 0
KPD1 171936Z 18012KT 36/16 A3002 RMK A01 T03610156  RH  030%=      5-min Rain = 0
KPD1 171937Z 17011KT 36/16 A3002 RMK A01 T03600156  RH  030%=      5-min Rain = 0
KPD1 171938Z 18013KT 36/16 A3002 RMK A01 T03610156  RH  030%=      5-min Rain = 0
KPD1 171939Z 19010KT 36/16 A3002 RMK A01 T03620156  RH  029%=      5-min Rain = 0
KPD1 171940Z 16010G17KT 36/16 A3002 RMK A01 T03630158  RH  030%=      5-min Rain = 0
KPD1 171941Z 16010KT 37/16 A3001 RMK A01 T03670156  RH  029%=      5-min Rain = 0
KPD1 171942Z 16007KT 37/16 A3001 RMK A01 T03690157  RH  028%=      5-min Rain = 0
KPD1 171943Z 14012G17KT 37/16 A3001 RMK A01 T03710156  RH  028%=      5-min Rain = 0
KPD1 171944Z 16011G19KT 37/16 A3001 RMK A01 T03690156  RH  028%=      5-min Rain = 0
KPD1 171945Z 18016G22KT 37/15 A3001 RMK A01 T03690154  RH  028%=      5-min Rain = 0
KPD1 171946Z 18021KT 37/15 A3001 RMK A01 T03670151  RH  028%=      5-min Rain = 0
KPD1 171947Z 20012G18KT 36/15 A3001 RMK A01 T03640150  RH  028%=      5-min Rain = 0
KPD1 171948Z 19012KT 36/15 A3001 RMK A01 T03610151  RH  029%=      5-min Rain = 0
KPD1 171949Z 16012KT 36/15 A3001 RMK A01 T03610150  RH  028%=      5-min Rain = 0
KPD1 171950Z 16012G17KT 36/15 A3001 RMK A01 T03630151  RH  028%=      5-min Rain = 0
KPD1 171951Z 16013KT 37/15 A3001 RMK A01 T03660150  RH  028%=      5-min Rain = 0
KPD1 171952Z 18013KT 37/15 A3001 RMK A01 T03660150  RH  028%=      5-min Rain = 0
KPD1 171953Z 17012KT 37/15 A3001 RMK A01 T03660148  RH  027%=      5-min Rain = 0
KPD1 171954Z 16012KT 36/15 A3001 RMK A01 T03640146  RH  027%=      5-min Rain = 0
KPD1 171955Z 17012KT 36/15 A3001 RMK A01 T03640148  RH  028%=      5-min Rain = 0
KPD1 171956Z 17008G15KT 37/15 A3001 RMK A01 T03670147  RH  027%=      5-min Rain = 0
KPD1 171957Z 14010KT 37/15 A3001 RMK A01 T03680147  RH  027%=      5-min Rain = 0
KPD1 171958Z 16011KT 37/15 A3001 RMK A01 T03670145  RH  027%=      5-min Rain = 0
KPD1 171959Z 16017KT 37/15 A3001 RMK A01 T03690148  RH  027%=      5-min Rain = 0
KPD1 172000Z 17015G21KT 37/15 A3001 RMK A01 T03700148  RH  027%=      5-min Rain = 0
KPD1 172001Z 16011G17KT 37/15 A3001 RMK A01 T03700147  RH  027%=      5-min Rain = 0
KPD1 172002Z 15011G19KT 37/15 A3001 RMK A01 T03690148  RH  027%=      5-min Rain = 0
KPD1 172003Z 15013G19KT 37/15 A3001 RMK A01 T03690148  RH  027%=      5-min Rain = 0
KPD1 172004Z 17012G17KT 37/15 A3001 RMK A01 T03690147  RH  027%=      5-min Rain = 0
KPD1 172005Z 16013G20KT 37/15 A3001 RMK A01 T03700146  RH  026%=      5-min Rain = 0
KPD1 172006Z 14012G17KT 37/15 A3001 RMK A01 T03690145  RH  026%=      5-min Rain = 0
KPD1 172007Z 16012G18KT 37/15 A3001 RMK A01 T03690145  RH  026%=      5-min Rain = 0
KPD1 172008Z 17012KT 37/15 A3001 RMK A01 T03710146  RH  026%=      5-min Rain = 0
KPD1 172009Z 17007KT 37/14 A3001 RMK A01 T03710144  RH  026%=      5-min Rain = 0
KPD1 172010Z 17009KT 37/15 A3001 RMK A01 T03700146  RH  026%=      5-min Rain = 0
KPD1 172011Z 16013G19KT 37/15 A3001 RMK A01 T03720148  RH  027%=      5-min Rain = 0
KPD1 172012Z 16012KT 37/15 A3001 RMK A01 T03730148  RH  026%=      5-min Rain = 0
KPD1 172013Z 15010KT 37/15 A3001 RMK A01 T03720149  RH  027%=      5-min Rain = 0
KPD1 172014Z 15011KT 37/15 A3001 RMK A01 T03710148  RH  027%=      5-min Rain = 0
KPD1 172015Z 18013G19KT 37/15 A3001 RMK A01 T03730149  RH  027%=      5-min Rain = 0
KPD1 172016Z 19016KT 37/15 A3001 RMK A01 T03720149  RH  027%=      5-min Rain = 0
KPD1 172017Z 19012KT 37/15 A30 RMK A01 T03700148  RH  027%=      5-min Rain = 0
KPD1 172018Z 19011KT 37/15 A30 RMK A01 T03670147  RH  027%=      5-min Rain = 0
KPD1 172019Z 19010G16KT 37/15 A30 RMK A01 T03650149  RH  028%=      5-min Rain = 0
KPD1 172020Z 19011G16KT 37/15 A30 RMK A01 T03660149  RH  028%=      5-min Rain = 0
KPD1 172021Z 19008G13KT 37/15 A30 RMK A01 T03680151  RH  027%=      5-min Rain = 0
KPD1 172022Z 20006G11KT 37/15 A30 RMK A01 T03690152  RH  028%=      5-min Rain = 0
KPD1 172023Z 20010KT 37/15 A30 RMK A01 T03710152  RH  027%=      5-min Rain = 0
KPD1 172024Z 18011KT 37/15 A30 RMK A01 T03710150  RH  027%=      5-min Rain = 0
KPD1 172025Z 19014KT 37/15 A30 RMK A01 T03690150  RH  027%=      5-min Rain = 0
KPD1 172026Z 17013G20KT 37/15 A30 RMK A01 T03690152  RH  028%=      5-min Rain = 0
KPD1 172027Z 18014KT 37/15 A30 RMK A01 T03700152  RH  027%=      5-min Rain = 0
KPD1 172028Z 17014G20KT 37/15 A30 RMK A01 T03680151  RH  028%=      5-min Rain = 0
KPD1 172029Z 16011KT 37/15 A30 RMK A01 T03670151  RH  028%=      5-min Rain = 0
KPD1 172030Z 16009KT 37/15 A30 RMK A01 T03680153  RH  028%=      5-min Rain = 0
KPD1 172031Z 17011KT 37/15 A30 RMK A01 T03710154  RH  028%=      5-min Rain = 0
KPD1 172032Z 16008KT 37/15 A30 RMK A01 T03720153  RH  027%=      5-min Rain = 0
KPD1 172033Z 16011G16KT 37/15 A30 RMK A01 T03730152  RH  027%=      5-min Rain = 0
KPD1 172034Z 17011KT 37/15 A30 RMK A01 T03730152  RH  027%=      5-min Rain = 0
KPD1 172035Z 18013KT 37/15 A30 RMK A01 T03740152  RH  027%=      5-min Rain = 0
KPD1 172036Z 16008G14KT 37/15 A30 RMK A01 T03730151  RH  027%=      5-min Rain = 0
KPD1 172037Z 13007KT 37/15 A2999 RMK A01 T03720151  RH  027%=      5-min Rain = 0
KPD1 172038Z 15014G19KT 37/15 A2999 RMK A01 T03710151  RH  027%=      5-min Rain = 0
KPD1 172039Z 15010G15KT 37/15 A2999 RMK A01 T03710149  RH  027%=      5-min Rain = 0
KPD1 172040Z 17007G14KT 37/15 A2999 RMK A01 T03710152  RH  027%=      5-min Rain = 0
KPD1 172041Z 19015KT 37/15 A2999 RMK A01 T03740152  RH  027%=      5-min Rain = 0
KPD1 172042Z 18013KT 37/15 A2999 RMK A01 T03730147  RH  026%=      5-min Rain = 0
KPD1 172043Z 20013KT 37/15 A2999 RMK A01 T03720149  RH  027%=      5-min Rain = 0
KPD1 172044Z 19015KT 37/15 A30 RMK A01 T03710148  RH  027%=      5-min Rain = 0
KPD1 172045Z 17012KT 37/15 A30 RMK A01 T03710147  RH  026%=      5-min Rain = 0
KPD1 172046Z 16011KT 37/15 A2999 RMK A01 T03700146  RH  026%=      5-min Rain = 0
KPD1 172047Z 16011KT 37/15 A2999 RMK A01 T03690145  RH  026%=      5-min Rain = 0
KPD1 172048Z 18009G16KT 37/15 A2999 RMK A01 T03680146  RH  027%=      5-min Rain = 0
KPD1 172049Z 19012G20KT 37/15 A2999 RMK A01 T03700147  RH  027%=      5-min Rain = 0
KPD1 172050Z 17013G19KT 37/15 A2999 RMK A01 T03710148  RH  027%=      5-min Rain = 0
KPD1 172051Z 20011KT 37/15 A2999 RMK A01 T03700150  RH  027%=      5-min Rain = 0
KPD1 172052Z 21008KT 37/15 A2999 RMK A01 T03710148  RH  027%=      5-min Rain = 0
KPD1 172053Z 19007G12KT 37/15 A2999 RMK A01 T03670148  RH  027%=      5-min Rain = 0
KPD1 172054Z 17012KT 37/15 A2999 RMK A01 T03660149  RH  028%=      5-min Rain = 0
KPD1 172055Z 19012G23KT 37/15 A2999 RMK A01 T03660149  RH  027%=      5-min Rain = 0
KPD1 172056Z 19018G23KT 37/15 A2999 RMK A01 T03690148  RH  027%=      5-min Rain = 0
KPD1 172057Z 20016G21KT 37/15 A2999 RMK A01 T03690147  RH  027%=      5-min Rain = 0
KPD1 172058Z 21014KT 37/15 A2999 RMK A01 T03690146  RH  027%=      5-min Rain = 0
KPD1 172059Z 20008KT 37/15 A2999 RMK A01 T03670147  RH  027%=      5-min Rain = 0
KPD1 172100Z 19011KT 37/15 A2999 RMK A01 T03680150  RH  027%=      5-min Rain = 0
KPD1 172101Z 20011KT 37/15 A2999 RMK A01 T03710148  RH  027%=      5-min Rain = 0
KPD1 172102Z 20011G16KT 37/15 A2999 RMK A01 T03700147  RH  027%=      5-min Rain = 0
KPD1 172103Z 19011G16KT 37/15 A2999 RMK A01 T03690149  RH  027%=      5-min Rain = 0
KPD1 172104Z 17010G18KT 37/15 A2999 RMK A01 T03700148  RH  027%=      5-min Rain = 0
KPD1 172105Z 17018G23KT 37/15 A2999 RMK A01 T03720149  RH  027%=      5-min Rain = 0
KPD1 172106Z 20014G21KT 37/15 A2999 RMK A01 T03700147  RH  027%=      5-min Rain = 0
KPD1 172107Z 20008KT 37/15 A2999 RMK A01 T03670147  RH  027%=      5-min Rain = 0
KPD1 172108Z 17009KT 37/15 A2999 RMK A01 T03660148  RH  027%=      5-min Rain = 0
KPD1 172109Z 18009G15KT 37/15 A2999 RMK A01 T03680149  RH  027%=      5-min Rain = 0
KPD1 172110Z 18010G17KT 37/15 A2999 RMK A01 T03720150  RH  027%=      5-min Rain = 0
KPD1 172111Z 17008G13KT 37/15 A2998 RMK A01 T03730145  RH  026%=      5-min Rain = 0
KPD1 172112Z 19009KT 37/15 A2999 RMK A01 T03720146  RH  026%=      5-min Rain = 0
KPD1 172113Z 21011KT 37/15 A2998 RMK A01 T03710145  RH  026%=      5-min Rain = 0
KPD1 172114Z 20012KT 37/15 A2998 RMK A01 T03720145  RH  026%=      5-min Rain = 0
KPD1 172115Z 18007KT 37/15 A2998 RMK A01 T03720148  RH  026%=      5-min Rain = 0
KPD1 172116Z 17016KT 37/15 A2998 RMK A01 T03740149  RH  026%=      5-min Rain = 0
KPD1 172117Z 16012KT 37/15 A2998 RMK A01 T03740146  RH  026%=      5-min Rain = 0
KPD1 172118Z 17011KT 37/14 A2998 RMK A01 T03720144  RH  026%=      5-min Rain = 0
KPD1 172119Z 17012KT 37/15 A2998 RMK A01 T03690145  RH  026%=      5-min Rain = 0
KPD1 172120Z 16015KT 37/15 A2998 RMK A01 T03690145  RH  026%=      5-min Rain = 0
KPD1 172121Z 17015KT 37/15 A2998 RMK A01 T03700145  RH  026%=      5-min Rain = 0
KPD1 172122Z 19011G16KT 37/15 A2998 RMK A01 T03690146  RH  027%=      5-min Rain = 0
KPD1 172123Z 18015KT 37/15 A2998 RMK A01 T03700146  RH  026%=      5-min Rain = 0
KPD1 172124Z 19014KT 37/14 A2998 RMK A01 T03700144  RH  026%=      5-min Rain = 0
KPD1 172125Z 20014KT 37/14 A2998 RMK A01 T03680143  RH  026%=      5-min Rain = 0
KPD1 172126Z 19011G18KT 37/14 A2998 RMK A01 T03660143  RH  027%=      5-min Rain = 0
KPD1 172127Z 19010KT 37/14 A2998 RMK A01 T03670144  RH  027%=      5-min Rain = 0
KPD1 172128Z 19008G13KT 37/15 A2998 RMK A01 T03690145  RH  026%=      5-min Rain = 0
KPD1 172129Z 19010G15KT 37/15 A2998 RMK A01 T03730149  RH  027%=      5-min Rain = 0
KPD1 172130Z 19014KT 38/14 A2998 RMK A01 T03760143  RH  025%=      5-min Rain = 0
KPD1 172131Z 18012KT 37/14 A2998 RMK A01 T03720140  RH  025%=      5-min Rain = 0
KPD1 172132Z 18014G19KT 37/14 A2998 RMK A01 T03710142  RH  026%=      5-min Rain = 0
KPD1 172133Z 17015G21KT 37/14 A2998 RMK A01 T03720141  RH  025%=      5-min Rain = 0
KPD1 172134Z 18016G21KT 37/14 A2998 RMK A01 T03710140  RH  025%=      5-min Rain = 0
KPD1 172135Z 18012G19KT 37/14 A2998 RMK A01 T03690141  RH  026%=      5-min Rain = 0
KPD1 172136Z 17009G14KT 37/14 A2998 RMK A01 T03680142  RH  026%=      5-min Rain = 0
KPD1 172137Z 20008KT 37/14 A2998 RMK A01 T03680139  RH  026%=      5-min Rain = 0
KPD1 172138Z 17008KT 37/14 A2998 RMK A01 T03680141  RH  026%=      5-min Rain = 0
KPD1 172139Z 17010KT 37/14 A2998 RMK A01 T03690142  RH  026%=      5-min Rain = 0
KPD1 172140Z 17006KT 37/14 A2998 RMK A01 T03720143  RH  026%=      5-min Rain = 0
KPD1 172141Z 17011KT 37/14 A2998 RMK A01 T03730143  RH  026%=      5-min Rain = 0
KPD1 172142Z 17009KT 37/14 A2998 RMK A01 T03740144  RH  026%=      5-min Rain = 0
KPD1 172143Z 17016G21KT 38/14 A2998 RMK A01 T03760143  RH  025%=      5-min Rain = 0
KPD1 172144Z 17015KT 37/14 A2998 RMK A01 T03740140  RH  025%=      5-min Rain = 0
KPD1 172145Z 17017KT 37/14 A2998 RMK A01 T03710139  RH  025%=      5-min Rain = 0
KPD1 172146Z 17013KT 37/14 A2998 RMK A01 T03690137  RH  025%=      5-min Rain = 0
KPD1 172147Z 17013KT 37/14 A2998 RMK A01 T03670138  RH  025%=      5-min Rain = 0
KPD1 172148Z 16012KT 37/14 A2998 RMK A01 T03680140  RH  026%=      5-min Rain = 0
KPD1 172149Z 17011KT 37/14 A2998 RMK A01 T03690140  RH  025%=      5-min Rain = 0
KPD1 172150Z 20010KT 37/14 A2998 RMK A01 T03670139  RH  026%=      5-min Rain = 0
KPD1 172151Z 18012KT 37/14 A2998 RMK A01 T03680140  RH  026%=      5-min Rain = 0
KPD1 172152Z 16012KT 37/14 A2998 RMK A01 T03690139  RH  025%=      5-min Rain = 0
KPD1 172153Z 16015KT 37/14 A2998 RMK A01 T03710139  RH  025%=      5-min Rain = 0
KPD1 172154Z 19010KT 37/14 A2998 RMK A01 T03700138  RH  025%=      5-min Rain = 0
KPD1 172155Z 20010KT 37/14 A2998 RMK A01 T03690137  RH  025%=      5-min Rain = 0
KPD1 172156Z 19011KT 37/14 A2998 RMK A01 T03680138  RH  026%=      5-min Rain = 0
KPD1 172157Z 19012KT 37/14 A2998 RMK A01 T03690138  RH  025%=      5-min Rain = 0
KPD1 172158Z 20012KT 37/14 A2997 RMK A01 T03710137  RH  025%=      5-min Rain = 0
KPD1 172159Z 19009KT 37/14 A2997 RMK A01 T03700135  RH  025%=      5-min Rain = 0
KPD1 172200Z 19010G16KT 37/14 A2997 RMK A01 T03700140  RH  025%=      5-min Rain = 0
KPD1 172201Z 18011G16KT 37/14 A2997 RMK A01 T03710137  RH  025%=      5-min Rain = 0
KPD1 172202Z 17014G19KT 37/14 A2997 RMK A01 T03720136  RH  025%=      5-min Rain = 0
KPD1 172203Z 17013G19KT 37/14 A2997 RMK A01 T03720135  RH  024%=      5-min Rain = 0
KPD1 172204Z 16015KT 37/13 A2997 RMK A01 T03710132  RH  024%=      5-min Rain = 0
KPD1 172205Z 16014KT 37/13 A2997 RMK A01 T03680131  RH  024%=      5-min Rain = 0
KPD1 172206Z 18013KT 37/13 A2997 RMK A01 T03670133  RH  025%=      5-min Rain = 0
KPD1 172207Z 20012KT 37/13 A2997 RMK A01 T03680134  RH  025%=      5-min Rain = 0
KPD1 172208Z 20011G17KT 37/13 A2997 RMK A01 T03680133  RH  025%=      5-min Rain = 0
KPD1 172209Z 19011KT 37/13 A2997 RMK A01 T03670132  RH  025%=      5-min Rain = 0
KPD1 172210Z 19008KT 37/13 A2997 RMK A01 T03660133  RH  025%=      5-min Rain = 0
KPD1 172211Z 19008G17KT 37/14 A2997 RMK A01 T03670136  RH  025%=      5-min Rain = 0
KPD1 172212Z 18013G19KT 37/13 A2996 RMK A01 T03700133  RH  024%=      5-min Rain = 0
KPD1 172213Z 18009G16KT 37/13 A2996 RMK A01 T03720134  RH  024%=      5-min Rain = 0
KPD1 172214Z 20013G21KT 37/13 A2997 RMK A01 T03740134  RH  024%=      5-min Rain = 0
KPD1 172215Z 19013KT 38/13 A2996 RMK A01 T03750130  RH  023%=      5-min Rain = 0
KPD1 172216Z 19011G17KT 37/13 A2996 RMK A01 T03730129  RH  023%=      5-min Rain = 0
KPD1 172217Z 17010G16KT 37/13 A2996 RMK A01 T03710130  RH  024%=      5-min Rain = 0
KPD1 172218Z 17011KT 37/13 A2996 RMK A01 T03700128  RH  024%=      5-min Rain = 0
KPD1 172219Z 16010G15KT 37/13 A2996 RMK A01 T03690128  RH  024%=      5-min Rain = 0
KPD1 172220Z 17012KT 37/13 A2996 RMK A01 T03690128  RH  024%=      5-min Rain = 0
KPD1 172221Z 17009G15KT 37/13 A2996 RMK A01 T03700129  RH  024%=      5-min Rain = 0
KPD1 172222Z 17008G13KT 37/13 A2996 RMK A01 T03710128  RH  023%=      5-min Rain = 0
KPD1 172223Z 16011G18KT 37/13 A2996 RMK A01 T03710128  RH  023%=      5-min Rain = 0
KPD1 172224Z 16014G19KT 37/13 A2996 RMK A01 T03710128  RH  023%=      5-min Rain = 0
KPD1 172225Z 17014KT 37/13 A2996 RMK A01 T03710125  RH  023%=      5-min Rain = 0
KPD1 172226Z 16017KT 37/12 A2996 RMK A01 T03700124  RH  023%=      5-min Rain = 0
KPD1 172227Z 17014G21KT 37/12 A2996 RMK A01 T03670122  RH  023%=      5-min Rain = 0
KPD1 172228Z 18016G21KT 37/12 A2996 RMK A01 T03650122  RH  023%=      5-min Rain = 0
KPD1 172229Z 17014G19KT 37/12 A2996 RMK A01 T03650122  RH  023%=      5-min Rain = 0
KPD1 172230Z 17017KT 36/12 A2996 RMK A01 T03630120  RH  023%=      5-min Rain = 0
KPD1 172231Z 16014KT 36/12 A2996 RMK A01 T03630121  RH  023%=      5-min Rain = 0
KPD1 172232Z 16010KT 36/12 A2996 RMK A01 T03620121  RH  023%=      5-min Rain = 0
KPD1 172233Z 16010KT 36/12 A2996 RMK A01 T03640121  RH  023%=      5-min Rain = 0
KPD1 172234Z 18010KT 37/12 A2996 RMK A01 T03650119  RH  023%=      5-min Rain = 0
KPD1 172235Z 19011G16KT 36/12 A2996 RMK A01 T03640119  RH  023%=      5-min Rain = 0
KPD1 172236Z 18008KT 36/12 A2996 RMK A01 T03640120  RH  023%=      5-min Rain = 0
KPD1 172237Z 18008KT 37/12 A2996 RMK A01 T03660120  RH  023%=      5-min Rain = 0
KPD1 172238Z 16012G18KT 37/12 A2996 RMK A01 T03670119  RH  023%=      5-min Rain = 0
KPD1 172239Z 17013G18KT 37/12 A2996 RMK A01 T03670119  RH  023%=      5-min Rain = 0
KPD1 172240Z 16015G21KT 37/12 A2996 RMK A01 T03670120  RH  023%=      5-min Rain = 0
KPD1 172241Z 16012KT 37/12 A2996 RMK A01 T03650119  RH  023%=      5-min Rain = 0
KPD1 172242Z 17011G17KT 36/12 A2996 RMK A01 T03640122  RH  023%=      5-min Rain = 0
KPD1 172243Z 16012KT 37/12 A2996 RMK A01 T03660124  RH  023%=      5-min Rain = 0
KPD1 172244Z 17013KT 37/12 A2996 RMK A01 T03670122  RH  023%=      5-min Rain = 0
KPD1 172245Z 17011KT 37/12 A2996 RMK A01 T03680123  RH  023%=      5-min Rain = 0
KPD1 172246Z 17015KT 37/12 A2996 RMK A01 T03680123  RH  023%=      5-min Rain = 0
KPD1 172247Z 17012KT 37/12 A2996 RMK A01 T03670123  RH  023%=      5-min Rain = 0
KPD1 172248Z 17011KT 37/12 A2996 RMK A01 T03670123  RH  023%=      5-min Rain = 0
KPD1 172249Z 17011KT 37/12 A2996 RMK A01 T03670121  RH  023%=      5-min Rain = 0
KPD1 172250Z 17010KT 37/12 A2996 RMK A01 T03660121  RH  023%=      5-min Rain = 0
KPD1 172251Z 17013G18KT 37/12 A2996 RMK A01 T03680124  RH  023%=      5-min Rain = 0
KPD1 172252Z 17017KT 37/12 A2995 RMK A01 T03700123  RH  023%=      5-min Rain = 0
KPD1 172253Z 18017G22KT 37/12 A2996 RMK A01 T03690121  RH  023%=      5-min Rain = 0
KPD1 172254Z 16017G22KT 37/12 A2996 RMK A01 T03660118  RH  022%=      5-min Rain = 0
KPD1 172255Z 16015G20KT 36/12 A2996 RMK A01 T03630117  RH  023%=      5-min Rain = 0
KPD1 172256Z 17013G21KT 36/12 A2996 RMK A01 T03640119  RH  023%=      5-min Rain = 0
KPD1 172257Z 18013G18KT 36/12 A2996 RMK A01 T03630118  RH  023%=      5-min Rain = 0
KPD1 172258Z 17012KT 36/12 A2996 RMK A01 T03610117  RH  023%=      5-min Rain = 0
KPD1 172259Z 16014G19KT 36/12 A2996 RMK A01 T03630118  RH  023%=      5-min Rain = 0
KPD1 172300Z 17014KT 36/12 A2996 RMK A01 T03630117  RH  023%=      5-min Rain = 0
KPD1 172301Z 17014KT 36/12 A2996 RMK A01 T03630116  RH  023%=      5-min Rain = 0
KPD1 172302Z 16009KT 36/12 A2996 RMK A01 T03630117  RH  023%=      5-min Rain = 0
KPD1 172303Z 16015G20KT 36/12 A2996 RMK A01 T03640118  RH  023%=      5-min Rain = 0
KPD1 172304Z 16012KT 36/12 A2996 RMK A01 T03640116  RH  022%=      5-min Rain = 0
KPD1 172305Z 16014G19KT 36/12 A2996 RMK A01 T03640117  RH  023%=      5-min Rain = 0
KPD1 172306Z 17011KT 36/12 A2996 RMK A01 T03640118  RH  023%=      5-min Rain = 0
KPD1 172307Z 18015G20KT 37/12 A2996 RMK A01 T03650120  RH  023%=      5-min Rain = 0
KPD1 172308Z 17014G19KT 36/12 A2996 RMK A01 T03640120  RH  023%=      5-min Rain = 0
KPD1 172309Z 18012G18KT 36/12 A2996 RMK A01 T03620118  RH  023%=      5-min Rain = 0
KPD1 172310Z 18009KT 36/12 A2996 RMK A01 T03610119  RH  023%=      5-min Rain = 0
KPD1 172311Z 19014G19KT 36/12 A2995 RMK A01 T03600119  RH  023%=      5-min Rain = 0
KPD1 172312Z 19017G22KT 36/12 A2995 RMK A01 T03610119  RH  023%=      5-min Rain = 0
KPD1 172313Z 18016KT 36/12 A2995 RMK A01 T03590117  RH  023%=      5-min Rain = 0
KPD1 172314Z 18018KT 36/12 A2996 RMK A01 T03580117  RH  023%=      5-min Rain = 0
KPD1 172315Z 18014G19KT 36/12 A2996 RMK A01 T03570117  RH  024%=      5-min Rain = 0
KPD1 172316Z 17012KT 36/12 A2996 RMK A01 T03560119  RH  024%=      5-min Rain = 0
KPD1 172317Z 17013KT 36/12 A2996 RMK A01 T03570121  RH  024%=      5-min Rain = 0
KPD1 172318Z 19009KT 36/12 A2995 RMK A01 T03570121  RH  024%=      5-min Rain = 0
KPD1 172319Z 18012KT 36/12 A2995 RMK A01 T03580122  RH  024%=      5-min Rain = 0
KPD1 172320Z 18012KT 36/12 A2995 RMK A01 T03590119  RH  024%=      5-min Rain = 0
KPD1 172321Z 18010KT 36/12 A2995 RMK A01 T03580117  RH  023%=      5-min Rain = 0
KPD1 172322Z 16012KT 36/12 A2995 RMK A01 T03580118  RH  024%=      5-min Rain = 0
KPD1 172323Z 16011KT 36/12 A2995 RMK A01 T03590118  RH  023%=      5-min Rain = 0
KPD1 172324Z 18014KT 36/12 A2995 RMK A01 T03600118  RH  023%=      5-min Rain = 0
KPD1 172325Z 19014KT 36/12 A2995 RMK A01 T03600119  RH  023%=      5-min Rain = 0
KPD1 172326Z 19012KT 36/12 A2995 RMK A01 T03580119  RH  024%=      5-min Rain = 0
KPD1 172327Z 20012KT 36/12 A2995 RMK A01 T03570119  RH  024%=      5-min Rain = 0
KPD1 172328Z 19011G16KT 36/12 A2995 RMK A01 T03580119  RH  024%=      5-min Rain = 0
KPD1 172329Z 18011KT 36/12 A2995 RMK A01 T03580119  RH  024%=      5-min Rain = 0
KPD1 172330Z 16008KT 36/12 A2995 RMK A01 T03590121  RH  024%=      5-min Rain = 0
KPD1 172331Z 17008KT 36/12 A2995 RMK A01 T03600121  RH  024%=      5-min Rain = 0
KPD1 172332Z 16010G16KT 36/12 A2995 RMK A01 T03610119  RH  023%=      5-min Rain = 0
KPD1 172333Z 15018G23KT 36/12 A2995 RMK A01 T03610118  RH  023%=      5-min Rain = 0
KPD1 172334Z 16015G21KT 36/12 A2995 RMK A01 T03590117  RH  023%=      5-min Rain = 0
KPD1 172335Z 19011KT 36/12 A2996 RMK A01 T03570117  RH  024%=      5-min Rain = 0
KPD1 172336Z 18010G15KT 36/12 A2996 RMK A01 T03550117  RH  024%=      5-min Rain = 0
KPD1 172337Z 18008KT 35/12 A2995 RMK A01 T03540117  RH  024%=      5-min Rain = 0
KPD1 172338Z 19010G16KT 35/12 A2995 RMK A01 T03530119  RH  024%=      5-min Rain = 0
KPD1 172339Z 19011KT 35/12 A2995 RMK A01 T03540119  RH  024%=      5-min Rain = 0
KPD1 172340Z 18014KT 35/12 A2995 RMK A01 T03530117  RH  024%=      5-min Rain = 0
KPD1 172341Z 19015KT 35/12 A2995 RMK A01 T03540117  RH  024%=      5-min Rain = 0
KPD1 172342Z 18012KT 35/12 A2995 RMK A01 T03540116  RH  024%=      5-min Rain = 0
KPD1 172343Z 19012KT 35/12 A2995 RMK A01 T03540116  RH  024%=      5-min Rain = 0
KPD1 172344Z 20011G16KT 35/12 A2995 RMK A01 T03540116  RH  024%=      5-min Rain = 0
KPD1 172345Z 19011G16KT 35/12 A2995 RMK A01 T03540115  RH  024%=      5-min Rain = 0
KPD1 172346Z 20012KT 36/12 A2995 RMK A01 T03550116  RH  024%=      5-min Rain = 0
KPD1 172347Z 18010KT 36/12 A2995 RMK A01 T03550115  RH  023%=      5-min Rain = 0
KPD1 172348Z 19009KT 36/11 A2995 RMK A01 T03550114  RH  023%=      5-min Rain = 0
KPD1 172349Z 19010KT 36/12 A2995 RMK A01 T03560115  RH  023%=      5-min Rain = 0
KPD1 172350Z 19012KT 36/11 A2995 RMK A01 T03570113  RH  023%=      5-min Rain = 0
KPD1 172351Z 18009KT 36/11 A2995 RMK A01 T03560112  RH  023%=      5-min Rain = 0
KPD1 172352Z 17009KT 36/11 A2995 RMK A01 T03570114  RH  023%=      5-min Rain = 0
KPD1 172353Z 16013KT 36/12 A2995 RMK A01 T03570117  RH  024%=      5-min Rain = 0
KPD1 172354Z 16011KT 36/12 A2995 RMK A01 T03560119  RH  024%=      5-min Rain = 0
KPD1 172355Z 17011KT 36/12 A2995 RMK A01 T03560118  RH  024%=      5-min Rain = 0
KPD1 172356Z 17011KT 36/12 A2995 RMK A01 T03550121  RH  024%=      5-min Rain = 0
KPD1 172357Z 17009KT 35/12 A2995 RMK A01 T03540120  RH  024%=      5-min Rain = 0
KPD1 172358Z 18012KT 36/12 A2995 RMK A01 T03550121  RH  024%=      5-min Rain = 0
KPD1 172359Z 16011G17KT 35/12 A2995 RMK A01 T03540120  RH  024%=      5-min Rain = 0
KPD1 180000Z 18011KT 35/12 A2995 RMK A01 T03540120  RH  024%=      5-min Rain = 0
KPD1 180001Z 18009KT 35/12 A2995 RMK A01 T03540120  RH  024%=      5-min Rain = 0
KPD1 180002Z 17010G16KT 35/12 A2995 RMK A01 T03540120  RH  024%=      5-min Rain = 0
KPD1 180003Z 18012KT 36/12 A2995 RMK A01 T03550120  RH  024%=      5-min Rain = 0
KPD1 180004Z 16013G18KT 36/12 A2995 RMK A01 T03550120  RH  024%=      5-min Rain = 0
KPD1 180005Z 18010KT 35/12 A2995 RMK A01 T03540120  RH  024%=      5-min Rain = 0
KPD1 180006Z 17012KT 35/12 A2995 RMK A01 T03540120  RH  024%=      5-min Rain = 0
KPD1 180007Z 17013KT 35/12 A2995 RMK A01 T03540120  RH  024%=      5-min Rain = 0
KPD1 180008Z 17011KT 35/12 A2995 RMK A01 T03530119  RH  024%=      5-min Rain = 0
KPD1 180009Z 17007KT 35/12 A2995 RMK A01 T03520120  RH  025%=      5-min Rain = 0
KPD1 180010Z 16012G20KT 35/12 A2995 RMK A01 T03520121  RH  025%=      5-min Rain = 0
KPD1 180011Z 17015G21KT 35/12 A2995 RMK A01 T03530118  RH  024%=      5-min Rain = 0
KPD1 180012Z 16014KT 35/12 A2995 RMK A01 T03510117  RH  024%=      5-min Rain = 0
KPD1 180013Z 17013KT 35/12 A2995 RMK A01 T03510118  RH  024%=      5-min Rain = 0
KPD1 180014Z 17015KT 35/12 A2995 RMK A01 T03500117  RH  024%=      5-min Rain = 0
KPD1 180015Z 16015G20KT 35/12 A2995 RMK A01 T03500118  RH  024%=      5-min Rain = 0
KPD1 180016Z 17013G18KT 35/12 A2995 RMK A01 T03500117  RH  024%=      5-min Rain = 0
KPD1 180017Z 17015KT 35/12 A2995 RMK A01 T03500116  RH  024%=      5-min Rain = 0
KPD1 180018Z 17012KT 35/12 A2995 RMK A01 T03500116  RH  024%=      5-min Rain = 0
KPD1 180019Z 16010KT 35/12 A2995 RMK A01 T03500116  RH  024%=      5-min Rain = 0
KPD1 180020Z 18012G17KT 35/12 A2995 RMK A01 T03490115  RH  024%=      5-min Rain = 0
KPD1 180021Z 17013G18KT 35/11 A2995 RMK A01 T03500113  RH  024%=      5-min Rain = 0
KPD1 180022Z 18014KT 35/11 A2995 RMK A01 T03490110  RH  023%=      5-min Rain = 0
KPD1 180023Z 18011KT 35/11 A2995 RMK A01 T03490108  RH  023%=      5-min Rain = 0
KPD1 180024Z 17009KT 35/11 A2995 RMK A01 T03480109  RH  023%=      5-min Rain = 0
KPD1 180025Z 18010KT 35/11 A2995 RMK A01 T03490111  RH  024%=      5-min Rain = 0
KPD1 180026Z 18010KT 35/11 A2994 RMK A01 T03500111  RH  023%=      5-min Rain = 0
KPD1 180027Z 17010KT 35/11 A2994 RMK A01 T03500111  RH  023%=      5-min Rain = 0
KPD1 180028Z 16011KT 35/11 A2994 RMK A01 T03490110  RH  023%=      5-min Rain = 0
KPD1 180029Z 20013KT 35/11 A2994 RMK A01 T03490112  RH  024%=      5-min Rain = 0
KPD1 180030Z 17012KT 35/12 A2995 RMK A01 T03490116  RH  024%=      5-min Rain = 0
KPD1 180031Z 17012KT 35/12 A2994 RMK A01 T03480119  RH  025%=      5-min Rain = 0
KPD1 180032Z 17012KT 35/12 A2994 RMK A01 T03480120  RH  025%=      5-min Rain = 0
KPD1 180033Z 19011G16KT 35/12 A2995 RMK A01 T03470119  RH  025%=      5-min Rain = 0
KPD1 180034Z 17014KT 35/12 A2994 RMK A01 T03470121  RH  025%=      5-min Rain = 0
KPD1 180035Z 19012KT 35/12 A2994 RMK A01 T03460124  RH  026%=      5-min Rain = 0
KPD1 180036Z 19012G17KT 35/13 A2994 RMK A01 T03460126  RH  027%=      5-min Rain = 0
KPD1 180037Z 18015KT 35/13 A2994 RMK A01 T03470126  RH  026%=      5-min Rain = 0
KPD1 180038Z 18014KT 35/13 A2994 RMK A01 T03460126  RH  026%=      5-min Rain = 0
KPD1 180039Z 18012G18KT 35/13 A2994 RMK A01 T03460127  RH  027%=      5-min Rain = 0
KPD1 180040Z 18013G18KT 35/13 A2994 RMK A01 T03450129  RH  027%=      5-min Rain = 0
KPD1 180041Z 17011KT 35/13 A2994 RMK A01 T03450130  RH  027%=      5-min Rain = 0
KPD1 180042Z 18010KT 35/13 A2994 RMK A01 T03450131  RH  028%=      5-min Rain = 0
KPD1 180043Z 17012KT 35/13 A2994 RMK A01 T03450133  RH  028%=      5-min Rain = 0
KPD1 180044Z 18012KT 34/13 A2994 RMK A01 T03440132  RH  028%=      5-min Rain = 0
KPD1 180045Z 18007KT 34/13 A2994 RMK A01 T03440133  RH  028%=      5-min Rain = 0
KPD1 180046Z 17009KT 34/13 A2994 RMK A01 T03440133  RH  028%=      5-min Rain = 0
KPD1 180047Z 17008KT 34/13 A2994 RMK A01 T03440132  RH  028%=      5-min Rain = 0
KPD1 180048Z 16013G20KT 34/13 A2994 RMK A01 T03440132  RH  028%=      5-min Rain = 0
KPD1 180049Z 16014KT 34/13 A2994 RMK A01 T03430129  RH  027%=      5-min Rain = 0
KPD1 180050Z 17010KT 34/13 A2994 RMK A01 T03430129  RH  027%=      5-min Rain = 0
KPD1 180051Z 17012G17KT 34/13 A2994 RMK A01 T03420130  RH  028%=      5-min Rain = 0
KPD1 180052Z 17014G19KT 34/13 A2994 RMK A01 T03420130  RH  028%=      5-min Rain = 0
KPD1 180053Z 18010G15KT 34/13 A2994 RMK A01 T03430131  RH  028%=      5-min Rain = 0
KPD1 180054Z 18011KT 34/13 A2994 RMK A01 T03420131  RH  028%=      5-min Rain = 0
KPD1 180055Z 17012KT 34/13 A2994 RMK A01 T03410130  RH  028%=      5-min Rain = 0
KPD1 180056Z 17011KT 34/13 A2994 RMK A01 T03400130  RH  028%=      5-min Rain = 0
KPD1 180057Z 17014KT 34/13 A2994 RMK A01 T03410132  RH  028%=      5-min Rain = 0
KPD1 180058Z 16013KT 34/13 A2994 RMK A01 T03410132  RH  028%=      5-min Rain = 0
KPD1 180059Z 16009KT 34/13 A2994 RMK A01 T03400132  RH  029%=      5-min Rain = 0
KPD1 180100Z 17009KT 34/13 A2994 RMK A01 T03400134  RH  029%=      5-min Rain = 0
KPD1 180101Z 17010KT 34/13 A2994 RMK A01 T03400133  RH  029%=      5-min Rain = 0
KPD1 180102Z 18010KT 34/13 A2994 RMK A01 T03400133  RH  029%=      5-min Rain = 0
KPD1 180103Z 17010KT 34/13 A2994 RMK A01 T03390134  RH  029%=      5-min Rain = 0
KPD1 180104Z 17011G16KT 34/13 A2994 RMK A01 T03380133  RH  029%=      5-min Rain = 0
KPD1 180105Z 17013G18KT 34/13 A2994 RMK A01 T03380133  RH  029%=      5-min Rain = 0
KPD1 180106Z 18013KT 34/13 A2994 RMK A01 T03370132  RH  029%=      5-min Rain = 0
KPD1 180107Z 17011G16KT 34/13 A2994 RMK A01 T03380134  RH  029%=      5-min Rain = 0
KPD1 180108Z 18012G17KT 34/13 A2994 RMK A01 T03370133  RH  029%=      5-min Rain = 0
KPD1 180109Z 17011G16KT 34/13 A2994 RMK A01 T03360134  RH  029%=      5-min Rain = 0
KPD1 180110Z 17010KT 34/13 A2994 RMK A01 T03360134  RH  030%=      5-min Rain = 0
KPD1 180111Z 17010G15KT 34/14 A2994 RMK A01 T03360135  RH  030%=      5-min Rain = 0
KPD1 180112Z 17010KT 34/14 A2994 RMK A01 T03360135  RH  030%=      5-min Rain = 0
KPD1 180113Z 18012G17KT 34/14 A2994 RMK A01 T03350135  RH  030%=      5-min Rain = 0
KPD1 180114Z 17009KT 34/13 A2994 RMK A01 T03350134  RH  030%=      5-min Rain = 0
KPD1 180115Z 17010KT 34/14 A2994 RMK A01 T03350135  RH  030%=      5-min Rain = 0
KPD1 180116Z 16009KT 34/14 A2994 RMK A01 T03350135  RH  030%=      5-min Rain = 0
KPD1 180117Z 17008KT 33/14 A2994 RMK A01 T03340135  RH  030%=      5-min Rain = 0
KPD1 180118Z 18010KT 33/13 A2994 RMK A01 T03340134  RH  030%=      5-min Rain = 0
KPD1 180119Z 17011KT 33/13 A2994 RMK A01 T03330133  RH  030%=      5-min Rain = 0
KPD1 180120Z 17012KT 33/13 A2994 RMK A01 T03330133  RH  030%=      5-min Rain = 0
KPD1 180121Z 17014KT 33/13 A2994 RMK A01 T03330133  RH  030%=      5-min Rain = 0
KPD1 180122Z 17013G18KT 33/13 A2994 RMK A01 T03340134  RH  030%=      5-min Rain = 0
KPD1 180123Z 19014KT 33/13 A2994 RMK A01 T03330134  RH  030%=      5-min Rain = 0
KPD1 180124Z 18011KT 33/14 A2994 RMK A01 T03340135  RH  030%=      5-min Rain = 0
KPD1 180125Z 17012G17KT 33/14 A2994 RMK A01 T03330135  RH  030%=      5-min Rain = 0
KPD1 180126Z 17013KT 33/13 A2994 RMK A01 T03320134  RH  030%=      5-min Rain = 0
KPD1 180127Z 17014KT 33/13 A2994 RMK A01 T03320134  RH  030%=      5-min Rain = 0
KPD1 180128Z 17011KT 33/13 A2994 RMK A01 T03320134  RH  030%=      5-min Rain = 0
KPD1 180129Z 17014KT 33/13 A2994 RMK A01 T03320134  RH  030%=      5-min Rain = 0
KPD1 180130Z 18011KT 33/13 A2994 RMK A01 T03320133  RH  030%=      5-min Rain = 0
KPD1 180131Z 17011KT 33/13 A2994 RMK A01 T03310133  RH  030%=      5-min Rain = 0
KPD1 180132Z 17016KT 33/13 A2994 RMK A01 T03300133  RH  030%=      5-min Rain = 0
KPD1 180133Z 17014KT 33/13 A2994 RMK A01 T03300132  RH  030%=      5-min Rain = 0
KPD1 180134Z 18011KT 33/13 A2994 RMK A01 T03310133  RH  030%=      5-min Rain = 0
KPD1 180135Z 17012KT 33/13 A2994 RMK A01 T03300133  RH  030%=      5-min Rain = 0
KPD1 180136Z 17013KT 33/13 A2994 RMK A01 T03300133  RH  030%=      5-min Rain = 0
KPD1 180137Z 17012G19KT 33/13 A2994 RMK A01 T03290132  RH  030%=      5-min Rain = 0
KPD1 180138Z 17014G19KT 33/13 A2994 RMK A01 T03290132  RH  030%=      5-min Rain = 0
KPD1 180139Z 16010KT 33/13 A2994 RMK A01 T03290132  RH  030%=      5-min Rain = 0
KPD1 180140Z 17010G15KT 33/13 A2994 RMK A01 T03290133  RH  030%=      5-min Rain = 0
KPD1 180141Z 18013KT 33/13 A2994 RMK A01 T03280132  RH  031%=      5-min Rain = 0
KPD1 180142Z 17012KT 33/13 A2994 RMK A01 T03280133  RH  031%=      5-min Rain = 0
KPD1 180143Z 17012G17KT 33/13 A2994 RMK A01 T03280133  RH  031%=      5-min Rain = 0
KPD1 180144Z 16011KT 33/13 A2994 RMK A01 T03270132  RH  031%=      5-min Rain = 0
KPD1 180145Z 17011G16KT 33/13 A2994 RMK A01 T03260132  RH  031%=      5-min Rain = 0
KPD1 180146Z 17010G16KT 33/13 A2994 RMK A01 T03260133  RH  031%=      5-min Rain = 0
KPD1 180147Z 17010G15KT 33/13 A2994 RMK A01 T03260133  RH  031%=      5-min Rain = 0
KPD1 180148Z 17011G17KT 33/13 A2994 RMK A01 T03250132  RH  031%=      5-min Rain = 0
KPD1 180149Z 17011G17KT 33/13 A2994 RMK A01 T03250132  RH  031%=      5-min Rain = 0
KPD1 180150Z 17013G18KT 33/13 A2994 RMK A01 T03250132  RH  031%=      5-min Rain = 0
KPD1 180151Z 18013KT 33/13 A2994 RMK A01 T03260133  RH  031%=      5-min Rain = 0
KPD1 180152Z 16010KT 33/13 A2994 RMK A01 T03250133  RH  031%=      5-min Rain = 0
KPD1 180153Z 17009KT 33/13 A2994 RMK A01 T03250132  RH  031%=      5-min Rain = 0
KPD1 180154Z 17008KT 32/13 A2994 RMK A01 T03240133  RH  031%=      5-min Rain = 0
KPD1 180155Z 17009KT 32/13 A2994 RMK A01 T03220132  RH  031%=      5-min Rain = 0
KPD1 180156Z 16010G19KT 32/13 A2994 RMK A01 T03220132  RH  032%=      5-min Rain = 0
KPD1 180157Z 16012G17KT 32/13 A2994 RMK A01 T03220132  RH  031%=      5-min Rain = 0
KPD1 180158Z 17011KT 32/13 A2994 RMK A01 T03210131  RH  031%=      5-min Rain = 0
KPD1 180159Z 17010KT 32/13 A2994 RMK A01 T03220131  RH  031%=      5-min Rain = 0
KPD1 180200Z 17012KT 32/13 A2994 RMK A01 T03220132  RH  031%=      5-min Rain = 0
KPD1 180201Z 17011KT 32/13 A2994 RMK A01 T03220132  RH  031%=      5-min Rain = 0
KPD1 180202Z 16012KT 32/13 A2994 RMK A01 T03220131  RH  031%=      5-min Rain = 0
KPD1 180203Z 16011G17KT 32/13 A2994 RMK A01 T03220130  RH  031%=      5-min Rain = 0
KPD1 180204Z 16011KT 32/13 A2995 RMK A01 T03210129  RH  031%=      5-min Rain = 0
KPD1 180205Z 16011KT 32/13 A2995 RMK A01 T03220129  RH  031%=      5-min Rain = 0
KPD1 180206Z 16010G15KT 32/13 A2995 RMK A01 T03220129  RH  031%=      5-min Rain = 0
KPD1 180207Z 16010KT 32/13 A2995 RMK A01 T03210129  RH  031%=      5-min Rain = 0
KPD1 180208Z 17010KT 32/13 A2995 RMK A01 T03210130  RH  031%=      5-min Rain = 0
KPD1 180209Z 17008KT 32/13 A2995 RMK A01 T03210130  RH  031%=      5-min Rain = 0
KPD1 180210Z 16010KT 32/13 A2995 RMK A01 T03200129  RH  031%=      5-min Rain = 0
KPD1 180211Z 18011KT 32/13 A2995 RMK A01 T03190129  RH  031%=      5-min Rain = 0
KPD1 180212Z 17010KT 32/13 A2995 RMK A01 T03190129  RH  031%=      5-min Rain = 0
KPD1 180213Z 16010G15KT 32/13 A2995 RMK A01 T03190129  RH  031%=      5-min Rain = 0
KPD1 180214Z 16010KT 32/13 A2995 RMK A01 T03190129  RH  031%=      5-min Rain = 0
KPD1 180215Z 16014KT 32/13 A2995 RMK A01 T03190129  RH  031%=      5-min Rain = 0
KPD1 180216Z 16013KT 32/13 A2995 RMK A01 T03190128  RH  031%=      5-min Rain = 0
KPD1 180217Z 16013KT 32/13 A2995 RMK A01 T03190128  RH  031%=      5-min Rain = 0
KPD1 180218Z 16011KT 32/13 A2995 RMK A01 T03190128  RH  031%=      5-min Rain = 0
KPD1 180219Z 17012KT 32/13 A2995 RMK A01 T03190128  RH  031%=      5-min Rain = 0
KPD1 180220Z 17010KT 32/13 A2995 RMK A01 T03200128  RH  031%=      5-min Rain = 0
KPD1 180221Z 17010G15KT 32/13 A2995 RMK A01 T03190128  RH  031%=      5-min Rain = 0
KPD1 180222Z 17012KT 32/13 A2995 RMK A01 T03180128  RH  031%=      5-min Rain = 0
KPD1 180223Z 17011KT 32/13 A2995 RMK A01 T03180129  RH  031%=      5-min Rain = 0
KPD1 180224Z 16011G16KT 32/13 A2995 RMK A01 T03170128  RH  031%=      5-min Rain = 0
KPD1 180225Z 17012KT 32/13 A2995 RMK A01 T03180128  RH  032%=      5-min Rain = 0
KPD1 180226Z 16012KT 32/13 A2995 RMK A01 T03180129  RH  032%=      5-min Rain = 0
KPD1 180227Z 17012KT 32/13 A2995 RMK A01 T03180131  RH  032%=      5-min Rain = 0
KPD1 180228Z 17012G19KT 32/13 A2995 RMK A01 T03170130  RH  032%=      5-min Rain = 0
KPD1 180229Z 18013G19KT 32/13 A2995 RMK A01 T03170130  RH  032%=      5-min Rain = 0
KPD1 180230Z 16009G14KT 32/13 A2995 RMK A01 T03170130  RH  032%=      5-min Rain = 0
KPD1 180231Z 17008KT 32/13 A2995 RMK A01 T03170130  RH  032%=      5-min Rain = 0
KPD1 180232Z 17009KT 32/13 A2995 RMK A01 T03170131  RH  032%=      5-min Rain = 0
KPD1 180233Z 17012KT 32/13 A2995 RMK A01 T03160130  RH  032%=      5-min Rain = 0
KPD1 180234Z 16012KT 32/13 A2995 RMK A01 T03160131  RH  032%=      5-min Rain = 0
KPD1 180235Z 17009KT 32/13 A2995 RMK A01 T03160131  RH  032%=      5-min Rain = 0
KPD1 180236Z 16011KT 32/13 A2995 RMK A01 T03160131  RH  032%=      5-min Rain = 0
KPD1 180237Z 16013G18KT 32/13 A2995 RMK A01 T03150130  RH  032%=      5-min Rain = 0
KPD1 180238Z 17009KT 32/13 A2995 RMK A01 T03150131  RH  033%=      5-min Rain = 0
KPD1 180239Z 17009KT 32/13 A2995 RMK A01 T03150131  RH  033%=      5-min Rain = 0
KPD1 180240Z 16009KT 32/13 A2995 RMK A01 T03150131  RH  033%=      5-min Rain = 0
KPD1 180241Z 16010G15KT 31/13 A2996 RMK A01 T03140130  RH  033%=      5-min Rain = 0
KPD1 180242Z 16016KT 31/13 A2995 RMK A01 T03140131  RH  033%=      5-min Rain = 0
KPD1 180243Z 17012KT 31/13 A2996 RMK A01 T03140131  RH  033%=      5-min Rain = 0
KPD1 180244Z 16013KT 31/13 A2996 RMK A01 T03140131  RH  033%=      5-min Rain = 0
KPD1 180245Z 16009KT 32/13 A2996 RMK A01 T03150132  RH  033%=      5-min Rain = 0
KPD1 180246Z 16011KT 32/13 A2996 RMK A01 T03150131  RH  033%=      5-min Rain = 0
KPD1 180247Z 18009KT 31/13 A2996 RMK A01 T03140132  RH  033%=      5-min Rain = 0
KPD1 180248Z 17009KT 31/13 A2996 RMK A01 T03140132  RH  033%=      5-min Rain = 0
KPD1 180249Z 17010KT 31/13 A2996 RMK A01 T03130132  RH  033%=      5-min Rain = 0
KPD1 180250Z 18009KT 31/13 A2996 RMK A01 T03130132  RH  033%=      5-min Rain = 0
KPD1 180251Z 17009KT 31/13 A2996 RMK A01 T03130132  RH  033%=      5-min Rain = 0
KPD1 180252Z 17013G18KT 31/13 A2996 RMK A01 T03130133  RH  033%=      5-min Rain = 0
KPD1 180253Z 17010KT 31/13 A2997 RMK A01 T03120133  RH  033%=      5-min Rain = 0
KPD1 180254Z 16010KT 31/13 A2997 RMK A01 T03120132  RH  033%=      5-min Rain = 0
KPD1 180255Z 17008KT 31/13 A2997 RMK A01 T03130133  RH  034%=      5-min Rain = 0
KPD1 180256Z 17008KT 31/13 A2997 RMK A01 T03120133  RH  034%=      5-min Rain = 0
KPD1 180257Z 17010KT 31/13 A2997 RMK A01 T03110133  RH  034%=      5-min Rain = 0
KPD1 180258Z 16009G14KT 31/13 A2997 RMK A01 T03100134  RH  034%=      5-min Rain = 0
KPD1 180259Z 17007KT 31/13 A2997 RMK A01 T03100134  RH  034%=      5-min Rain = 0
KPD1 180300Z 16009KT 31/13 A2997 RMK A01 T03100134  RH  034%=      5-min Rain = 0
KPD1 180301Z 17012KT 31/14 A2997 RMK A01 T03100136  RH  035%=      5-min Rain = 0
KPD1 180302Z 17011KT 31/14 A2997 RMK A01 T03100136  RH  035%=      5-min Rain = 0
KPD1 180303Z 17009KT 31/14 A2997 RMK A01 T03090136  RH  035%=      5-min Rain = 0
KPD1 180304Z 17009KT 31/14 A2997 RMK A01 T03100137  RH  035%=      5-min Rain = 0
KPD1 180305Z 16009KT 31/14 A2997 RMK A01 T03100137  RH  035%=      5-min Rain = 0
KPD1 180306Z 16012KT 31/14 A2997 RMK A01 T03090138  RH  035%=      5-min Rain = 0
KPD1 180307Z 17012KT 31/14 A2997 RMK A01 T03080140  RH  036%=      5-min Rain = 0
KPD1 180308Z 17008KT 31/14 A2997 RMK A01 T03090141  RH  036%=      5-min Rain = 0
KPD1 180309Z 16011KT 31/14 A2997 RMK A01 T03090142  RH  036%=      5-min Rain = 0
KPD1 180310Z 17015KT 31/14 A2997 RMK A01 T03080143  RH  036%=      5-min Rain = 0
KPD1 180311Z 16011KT 31/14 A2997 RMK A01 T03080143  RH  037%=      5-min Rain = 0
KPD1 180312Z 16011G18KT 31/14 A2997 RMK A01 T03080143  RH  037%=      5-min Rain = 0
KPD1 180313Z 16010KT 31/14 A2997 RMK A01 T03080143  RH  037%=      5-min Rain = 0
KPD1 180314Z 18010KT 31/14 A2997 RMK A01 T03080144  RH  037%=      5-min Rain = 0
KPD1 180315Z 16009KT 31/14 A2998 RMK A01 T03070143  RH  037%=      5-min Rain = 0
KPD1 180316Z 17009G18KT 31/14 A2998 RMK A01 T03070144  RH  037%=      5-min Rain = 0
KPD1 180317Z 16014KT 31/14 A2998 RMK A01 T03060144  RH  037%=      5-min Rain = 0
KPD1 180318Z 17012KT 31/14 A2998 RMK A01 T03070144  RH  037%=      5-min Rain = 0
KPD1 180319Z 17008KT 31/14 A2998 RMK A01 T03070144  RH  037%=      5-min Rain = 0
KPD1 180320Z 17008KT 31/14 A2998 RMK A01 T03060144  RH  037%=      5-min Rain = 0
KPD1 180321Z 17011KT 31/14 A2998 RMK A01 T03050144  RH  038%=      5-min Rain = 0
KPD1 180322Z 17012G18KT 31/14 A2998 RMK A01 T03050144  RH  038%=      5-min Rain = 0
KPD1 180323Z 18016KT 31/14 A2998 RMK A01 T03050144  RH  038%=      5-min Rain = 0
KPD1 180324Z 17013KT 30/14 A2998 RMK A01 T03040144  RH  038%=      5-min Rain = 0
KPD1 180325Z 17009KT 31/15 A2998 RMK A01 T03050145  RH  038%=      5-min Rain = 0
KPD1 180326Z 17012G17KT 31/15 A2998 RMK A01 T03050145  RH  038%=      5-min Rain = 0
KPD1 180327Z 17011KT 31/15 A2998 RMK A01 T03050145  RH  038%=      5-min Rain = 0
KPD1 180328Z 17012KT 31/15 A2998 RMK A01 T03050145  RH  038%=      5-min Rain = 0
KPD1 180329Z 17010KT 30/14 A2998 RMK A01 T03040144  RH  038%=      5-min Rain = 0
KPD1 180330Z 16012G17KT 30/15 A2997 RMK A01 T03040146  RH  038%=      5-min Rain = 0
KPD1 180331Z 16013KT 30/15 A2997 RMK A01 T03040145  RH  038%=      5-min Rain = 0
KPD1 180332Z 17012KT 30/15 A2998 RMK A01 T03030145  RH  038%=      5-min Rain = 0
KPD1 180333Z 16013KT 30/15 A2997 RMK A01 T03040145  RH  038%=      5-min Rain = 0
KPD1 180334Z 16012KT 30/15 A2997 RMK A01 T03040146  RH  038%=      5-min Rain = 0
KPD1 180335Z 17012KT 30/15 A2997 RMK A01 T03040145  RH  038%=      5-min Rain = 0
KPD1 180336Z 17012KT 30/15 A2998 RMK A01 T03030145  RH  038%=      5-min Rain = 0
KPD1 180337Z 16012G17KT 30/15 A2998 RMK A01 T03030145  RH  038%=      5-min Rain = 0
KPD1 180338Z 17010KT 30/15 A2998 RMK A01 T03030145  RH  038%=      5-min Rain = 0
KPD1 180339Z 16011KT 30/15 A2998 RMK A01 T03020146  RH  038%=      5-min Rain = 0
KPD1 180340Z 15010KT 30/15 A2998 RMK A01 T03020145  RH  038%=      5-min Rain = 0
KPD1 180341Z 16011KT 30/15 A2998 RMK A01 T03020145  RH  039%=      5-min Rain = 0
KPD1 180342Z 16014KT 30/15 A2998 RMK A01 T03010145  RH  039%=      5-min Rain = 0
KPD1 180343Z 16014KT 30/15 A2998 RMK A01 T03010145  RH  039%=      5-min Rain = 0
KPD1 180344Z 16015KT 30/15 A2998 RMK A01 T03010145  RH  039%=      5-min Rain = 0
KPD1 180345Z 17015G21KT 30/15 A2998 RMK A01 T03010145  RH  039%=      5-min Rain = 0
KPD1 180346Z 17011KT 30/15 A2998 RMK A01 T03020145  RH  039%=      5-min Rain = 0
KPD1 180347Z 16012KT 30/15 A2998 RMK A01 T03010145  RH  039%=      5-min Rain = 0
KPD1 180348Z 17011KT 30/15 A2998 RMK A01 T03010145  RH  039%=      5-min Rain = 0
KPD1 180349Z 16012KT 30/15 A2998 RMK A01 T03010145  RH  039%=      5-min Rain = 0
KPD1 180350Z 15013KT 30/15 A2998 RMK A01 T03000145  RH  039%=      5-min Rain = 0
KPD1 180351Z 15012G19KT 30/15 A2998 RMK A01 T03000145  RH  039%=      5-min Rain = 0
KPD1 180352Z 16014G19KT 30/15 A2998 RMK A01 T03000145  RH  039%=      5-min Rain = 0
KPD1 180353Z 18014KT 30/15 A2998 RMK A01 T03000145  RH  039%=      5-min Rain = 0
KPD1 180354Z 17010KT 30/15 A2998 RMK A01 T02990145  RH  039%=      5-min Rain = 0
KPD1 180355Z 16011G18KT 30/15 A2998 RMK A01 T03000145  RH  039%=      5-min Rain = 0
KPD1 180356Z 17014KT 30/15 A2998 RMK A01 T02990145  RH  039%=      5-min Rain = 0
KPD1 180357Z 16011KT 30/14 A2998 RMK A01 T02980144  RH  039%=      5-min Rain = 0
KPD1 180358Z 16010KT 30/15 A2998 RMK A01 T02990145  RH  039%=      5-min Rain = 0
KPD1 180359Z 16012KT 30/15 A2998 RMK A01 T02980145  RH  039%=      5-min Rain = 0
KPD1 180400Z 16012KT 30/15 A2998 RMK A01 T02980145  RH  039%=      5-min Rain = 0
KPD1 180401Z 17011KT 30/15 A2998 RMK A01 T02980145  RH  039%=      5-min Rain = 0
KPD1 180402Z 16010G15KT 30/14 A2998 RMK A01 T02970144  RH  039%=      5-min Rain = 0
KPD1 180403Z 17010KT 30/15 A2998 RMK A01 T02970145  RH  039%=      5-min Rain = 0
KPD1 180404Z 15014KT 30/15 A2998 RMK A01 T02970145  RH  040%=      5-min Rain = 0
KPD1 180405Z 17014KT 30/14 A2998 RMK A01 T02960144  RH  040%=      5-min Rain = 0
KPD1 180406Z 16014G19KT 30/15 A2998 RMK A01 T02960145  RH  040%=      5-min Rain = 0
KPD1 180407Z 16012G17KT 30/15 A2998 RMK A01 T02970145  RH  040%=      5-min Rain = 0
KPD1 180408Z 16013KT 30/15 A2999 RMK A01 T02970145  RH  040%=      5-min Rain = 0
KPD1 180409Z 16013KT 30/15 A2999 RMK A01 T02960145  RH  040%=      5-min Rain = 0
KPD1 180410Z 16010KT 30/15 A2999 RMK A01 T02970145  RH  040%=      5-min Rain = 0
KPD1 180411Z 16012KT 30/15 A2999 RMK A01 T02960145  RH  040%=      5-min Rain = 0
KPD1 180412Z 17011G17KT 30/15 A2999 RMK A01 T02950145  RH  040%=      5-min Rain = 0
KPD1 180413Z 16012G19KT 30/15 A2999 RMK A01 T02950145  RH  040%=      5-min Rain = 0
KPD1 180414Z 16014KT 30/15 A2999 RMK A01 T02950145  RH  040%=      5-min Rain = 0
KPD1 180415Z 16014G19KT 30/14 A2998 RMK A01 T02950144  RH  040%=      5-min Rain = 0
KPD1 180416Z 17014G19KT 30/14 A2998 RMK A01 T02950144  RH  040%=      5-min Rain = 0
KPD1 180417Z 17013KT 30/15 A2998 RMK A01 T02960145  RH  040%=      5-min Rain = 0
KPD1 180418Z 17011KT 30/14 A2999 RMK A01 T02950144  RH  040%=      5-min Rain = 0
KPD1 180419Z 17013KT 30/15 A2998 RMK A01 T02950145  RH  040%=      5-min Rain = 0
KPD1 180420Z 16014G20KT 30/15 A2999 RMK A01 T02950145  RH  040%=      5-min Rain = 0
KPD1 180421Z 15011KT 30/15 A2999 RMK A01 T02950145  RH  040%=      5-min Rain = 0
KPD1 180422Z 16008KT 30/15 A2999 RMK A01 T02950145  RH  040%=      5-min Rain = 0
KPD1 180423Z 16012G19KT 29/15 A2999 RMK A01 T02940145  RH  040%=      5-min Rain = 0
KPD1 180424Z 17011KT 29/15 A2999 RMK A01 T02940145  RH  040%=      5-min Rain = 0
KPD1 180425Z 17012KT 29/14 A2999 RMK A01 T02930144  RH  040%=      5-min Rain = 0
KPD1 180426Z 17011KT 29/14 A2999 RMK A01 T02930144  RH  040%=      5-min Rain = 0
KPD1 180427Z 17012G18KT 29/14 A2999 RMK A01 T02930144  RH  040%=      5-min Rain = 0
KPD1 180428Z 16010KT 29/14 A2999 RMK A01 T02930144  RH  040%=      5-min Rain = 0
KPD1 180429Z 17011G16KT 29/15 A2999 RMK A01 T02930145  RH  040%=      5-min Rain = 0
KPD1 180430Z 16013G18KT 29/15 A2999 RMK A01 T02930145  RH  040%=      5-min Rain = 0
KPD1 180431Z 17011G16KT 29/15 A2999 RMK A01 T02920145  RH  041%=      5-min Rain = 0
KPD1 180432Z 17009KT 29/15 A2999 RMK A01 T02930145  RH  041%=      5-min Rain = 0
KPD1 180433Z 16011KT 29/15 A2999 RMK A01 T02920145  RH  041%=      5-min Rain = 0
KPD1 180434Z 16014G19KT 29/15 A2999 RMK A01 T02920145  RH  041%=      5-min Rain = 0
KPD1 180435Z 17012G18KT 29/15 A2999 RMK A01 T02920146  RH  041%=      5-min Rain = 0
KPD1 180436Z 15010G16KT 29/15 A2999 RMK A01 T02920146  RH  041%=      5-min Rain = 0
KPD1 180437Z 17015KT 29/15 A2999 RMK A01 T02920146  RH  041%=      5-min Rain = 0
KPD1 180438Z 17015KT 29/15 A2999 RMK A01 T02920146  RH  041%=      5-min Rain = 0
KPD1 180439Z 17013KT 29/15 A2999 RMK A01 T02920146  RH  041%=      5-min Rain = 0
KPD1 180440Z 17009G15KT 29/15 A2999 RMK A01 T02920147  RH  041%=      5-min Rain = 0
KPD1 180441Z 16014G20KT 29/15 A2999 RMK A01 T02910146  RH  041%=      5-min Rain = 0
KPD1 180442Z 16013G18KT 29/15 A2999 RMK A01 T02910146  RH  041%=      5-min Rain = 0
KPD1 180443Z 15014KT 29/15 A2999 RMK A01 T02910146  RH  041%=      5-min Rain = 0
KPD1 180444Z 16014KT 29/15 A2999 RMK A01 T02910146  RH  041%=      5-min Rain = 0
KPD1 180445Z 15011KT 29/15 A2999 RMK A01 T02920148  RH  041%=      5-min Rain = 0
KPD1 180446Z 16010G16KT 29/15 A2999 RMK A01 T02900146  RH  041%=      5-min Rain = 0
KPD1 180447Z 16012G19KT 29/15 A2999 RMK A01 T02900146  RH  042%=      5-min Rain = 0
KPD1 180448Z 16015G20KT 29/15 A2999 RMK A01 T02900147  RH  042%=      5-min Rain = 0
KPD1 180449Z 16014G19KT 29/15 A2999 RMK A01 T02890148  RH  042%=      5-min Rain = 0
KPD1 180450Z 17012G17KT 29/15 A2999 RMK A01 T02890148  RH  042%=      5-min Rain = 0
KPD1 180451Z 16009KT 29/15 A2999 RMK A01 T02890148  RH  042%=      5-min Rain = 0
KPD1 180452Z 16011KT 29/15 A2999 RMK A01 T02890148  RH  042%=      5-min Rain = 0
KPD1 180453Z 15010G17KT 29/15 A2999 RMK A01 T02880148  RH  042%=      5-min Rain = 0
KPD1 180454Z 16014KT 29/15 A2999 RMK A01 T02880149  RH  043%=      5-min Rain = 0
KPD1 180455Z 17010KT 29/15 A2999 RMK A01 T02880150  RH  043%=      5-min Rain = 0
KPD1 180456Z 16012KT 29/15 A2999 RMK A01 T02880150  RH  043%=      5-min Rain = 0
KPD1 180457Z 17014KT 29/15 A2999 RMK A01 T02880151  RH  043%=      5-min Rain = 0
KPD1 180458Z 16014KT 29/15 A2999 RMK A01 T02870151  RH  043%=      5-min Rain = 0
KPD1 180459Z 16010KT 29/15 A2999 RMK A01 T02880152  RH  044%=      5-min Rain = 0

Page generated in 0.0743 seconds.